Observation data for Guadalupe Mtns Park on 11/10/2019      Previous  Date       Current Mesonet Observations  Soil Data  Daily Summary Page  Observations in Plain Language
KGU1 100600Z 27007KT 16/10 A3021 RMK A01 T01630097  RH  067%=      5-min Rain = 0
KGU1 100601Z 28007KT 16/10 A3021 RMK A01 T01630098  RH  067%=      5-min Rain = 0
KGU1 100602Z 27005KT 16/10 A3021 RMK A01 T01620098  RH  068%=      5-min Rain = 0
KGU1 100603Z 27006KT 16/10 A3021 RMK A01 T01620098  RH  068%=      5-min Rain = 0
KGU1 100604Z 25004KT 16/10 A3021 RMK A01 T01630097  RH  067%=      5-min Rain = 0
KGU1 100605Z 25006KT 16/10 A3021 RMK A01 T01630097  RH  067%=      5-min Rain = 0
KGU1 100606Z 25007KT 16/10 A3021 RMK A01 T01620097  RH  067%=      5-min Rain = 0
KGU1 100607Z 26007KT 16/10 A3021 RMK A01 T01630097  RH  067%=      5-min Rain = 0
KGU1 100608Z 25006KT 16/10 A3021 RMK A01 T01630098  RH  067%=      5-min Rain = 0
KGU1 100609Z 27006KT 16/10 A3021 RMK A01 T01620098  RH  068%=      5-min Rain = 0
KGU1 100610Z 26005KT 16/10 A3021 RMK A01 T01600099  RH  069%=      5-min Rain = 0
KGU1 100611Z 25005KT 16/10 A3021 RMK A01 T01590098  RH  069%=      5-min Rain = 0
KGU1 100612Z 26006KT 16/10 A3021 RMK A01 T01590098  RH  069%=      5-min Rain = 0
KGU1 100613Z 27007KT 16/10 A3021 RMK A01 T01600097  RH  068%=      5-min Rain = 0
KGU1 100614Z 27007KT 16/10 A3021 RMK A01 T01610096  RH  068%=      5-min Rain = 0
KGU1 100615Z 27006KT 16/10 A3021 RMK A01 T01610096  RH  067%=      5-min Rain = 0
KGU1 100616Z 27009KT 16/10 A3021 RMK A01 T01610096  RH  067%=      5-min Rain = 0
KGU1 100617Z 27008KT 16/10 A3021 RMK A01 T01610097  RH  068%=      5-min Rain = 0
KGU1 100618Z 27007KT 16/10 A3021 RMK A01 T01600097  RH  068%=      5-min Rain = 0
KGU1 100619Z 27007KT 16/10 A3021 RMK A01 T01590098  RH  069%=      5-min Rain = 0
KGU1 100620Z 27009KT 16/10 A3021 RMK A01 T01580098  RH  069%=      5-min Rain = 0
KGU1 100621Z 28008KT 16/10 A3021 RMK A01 T01580097  RH  069%=      5-min Rain = 0
KGU1 100622Z 27009KT 16/10 A3021 RMK A01 T01580097  RH  069%=      5-min Rain = 0
KGU1 100623Z 27008KT 16/10 A3021 RMK A01 T01590096  RH  069%=      5-min Rain = 0
KGU1 100624Z 28008KT 16/10 A3021 RMK A01 T01600096  RH  068%=      5-min Rain = 0
KGU1 100625Z 27008KT 16/10 A3021 RMK A01 T01590097  RH  069%=      5-min Rain = 0
KGU1 100626Z 28009KT 16/10 A3021 RMK A01 T01590097  RH  069%=      5-min Rain = 0
KGU1 100627Z 27008KT 16/10 A3021 RMK A01 T01590097  RH  069%=      5-min Rain = 0
KGU1 100628Z 28008G13KT 16/10 A3021 RMK A01 T01600096  RH  068%=      5-min Rain = 0
KGU1 100629Z 26010KT 16/10 A3021 RMK A01 T01600096  RH  068%=      5-min Rain = 0
KGU1 100630Z 26008KT 16/10 A3021 RMK A01 T01610098  RH  068%=      5-min Rain = 0
KGU1 100631Z 28009KT 16/10 A3021 RMK A01 T01610097  RH  068%=      5-min Rain = 0
KGU1 100632Z 26009KT 16/10 A3021 RMK A01 T01600097  RH  068%=      5-min Rain = 0
KGU1 100633Z 27008KT 16/10 A3021 RMK A01 T01600097  RH  068%=      5-min Rain = 0
KGU1 100634Z 27009G14KT 16/10 A3021 RMK A01 T01600097  RH  068%=      5-min Rain = 0
KGU1 100635Z 27010KT 16/10 A3021 RMK A01 T01600097  RH  068%=      5-min Rain = 0
KGU1 100636Z 27010KT 16/10 A3021 RMK A01 T01600097  RH  068%=      5-min Rain = 0
KGU1 100637Z 27010KT 16/10 A3021 RMK A01 T01610097  RH  068%=      5-min Rain = 0
KGU1 100638Z 27012KT 16/10 A3021 RMK A01 T01610098  RH  068%=      5-min Rain = 0
KGU1 100639Z 26010KT 16/10 A3021 RMK A01 T01620098  RH  068%=      5-min Rain = 0
KGU1 100640Z 26010KT 16/10 A3021 RMK A01 T01610099  RH  069%=      5-min Rain = 0
KGU1 100641Z 25009KT 16/10 A3021 RMK A01 T01600099  RH  069%=      5-min Rain = 0
KGU1 100642Z 28009KT 16/10 A3021 RMK A01 T01600098  RH  069%=      5-min Rain = 0
KGU1 100643Z 27010KT 16/10 A3021 RMK A01 T01600098  RH  069%=      5-min Rain = 0
KGU1 100644Z 26008KT 16/10 A3021 RMK A01 T01600098  RH  069%=      5-min Rain = 0
KGU1 100645Z 28009KT 16/10 A3021 RMK A01 T01600097  RH  069%=      5-min Rain = 0
KGU1 100646Z 27008KT 16/10 A3021 RMK A01 T01590097  RH  069%=      5-min Rain = 0
KGU1 100647Z 27009KT 16/10 A3021 RMK A01 T01590096  RH  068%=      5-min Rain = 0
KGU1 100648Z 27012KT 16/10 A3021 RMK A01 T01590097  RH  069%=      5-min Rain = 0
KGU1 100649Z 27011KT 16/10 A3021 RMK A01 T01600097  RH  069%=      5-min Rain = 0
KGU1 100650Z 27009KT 16/10 A3021 RMK A01 T01600097  RH  068%=      5-min Rain = 0
KGU1 100651Z 28010KT 16/10 A3021 RMK A01 T01590097  RH  069%=      5-min Rain = 0
KGU1 100652Z 28010KT 16/10 A3021 RMK A01 T01590097  RH  069%=      5-min Rain = 0
KGU1 100653Z 28008KT 16/10 A3021 RMK A01 T01580097  RH  069%=      5-min Rain = 0
KGU1 100654Z 27009KT 16/10 A3021 RMK A01 T01580097  RH  069%=      5-min Rain = 0
KGU1 100655Z 27007KT 16/10 A3021 RMK A01 T01570097  RH  069%=      5-min Rain = 0
KGU1 100656Z 27007KT 16/10 A3021 RMK A01 T01560096  RH  070%=      5-min Rain = 0
KGU1 100657Z 27005KT 16/10 A3021 RMK A01 T01560096  RH  070%=      5-min Rain = 0
KGU1 100658Z 27007KT 16/10 A3021 RMK A01 T01560096  RH  069%=      5-min Rain = 0
KGU1 100659Z 27006KT 16/10 A3021 RMK A01 T01560096  RH  070%=      5-min Rain = 0
KGU1 100700Z 27006KT 16/10 A3021 RMK A01 T01560096  RH  070%=      5-min Rain = 0
KGU1 100701Z 27006KT 16/10 A3021 RMK A01 T01560096  RH  070%=      5-min Rain = 0
KGU1 100702Z 26007KT 16/10 A302 RMK A01 T01560096  RH  070%=      5-min Rain = 0
KGU1 100703Z 28006KT 16/10 A302 RMK A01 T01560096  RH  069%=      5-min Rain = 0
KGU1 100704Z 27006KT 16/10 A302 RMK A01 T01560096  RH  069%=      5-min Rain = 0
KGU1 100705Z 27003KT 16/10 A302 RMK A01 T01560095  RH  070%=      5-min Rain = 0
KGU1 100706Z 26004KT 16/10 A302 RMK A01 T01550095  RH  069%=      5-min Rain = 0
KGU1 100707Z 28008KT 15/09 A302 RMK A01 T01540094  RH  069%=      5-min Rain = 0
KGU1 100708Z 27007KT 16/10 A302 RMK A01 T01550095  RH  069%=      5-min Rain = 0
KGU1 100709Z 28004KT 16/10 A302 RMK A01 T01550095  RH  069%=      5-min Rain = 0
KGU1 100710Z 28004KT 16/10 A302 RMK A01 T01550095  RH  069%=      5-min Rain = 0
KGU1 100711Z 28007KT 16/10 A302 RMK A01 T01550095  RH  069%=      5-min Rain = 0
KGU1 100712Z 27005KT 16/10 A302 RMK A01 T01560095  RH  069%=      5-min Rain = 0
KGU1 100713Z 28007KT 16/10 A302 RMK A01 T01560095  RH  069%=      5-min Rain = 0
KGU1 100714Z 28006KT 16/10 A302 RMK A01 T01570095  RH  069%=      5-min Rain = 0
KGU1 100715Z 26005KT 16/10 A302 RMK A01 T01560095  RH  069%=      5-min Rain = 0
KGU1 100716Z 25004KT 16/10 A302 RMK A01 T01560095  RH  069%=      5-min Rain = 0
KGU1 100717Z 24005KT 16/10 A302 RMK A01 T01550095  RH  069%=      5-min Rain = 0
KGU1 100718Z 26006KT 16/10 A302 RMK A01 T01570095  RH  069%=      5-min Rain = 0
KGU1 100719Z 27003KT 16/10 A302 RMK A01 T01580095  RH  069%=      5-min Rain = 0
KGU1 100720Z 27005KT 16/10 A302 RMK A01 T01580095  RH  068%=      5-min Rain = 0
KGU1 100721Z 28005KT 16/10 A302 RMK A01 T01570096  RH  069%=      5-min Rain = 0
KGU1 100722Z 27006KT 16/10 A302 RMK A01 T01560095  RH  069%=      5-min Rain = 0
KGU1 100723Z 27004KT 16/10 A302 RMK A01 T01560095  RH  069%=      5-min Rain = 0
KGU1 100724Z 28006KT 16/10 A302 RMK A01 T01560095  RH  069%=      5-min Rain = 0
KGU1 100725Z 25006KT 16/10 A302 RMK A01 T01560095  RH  069%=      5-min Rain = 0
KGU1 100726Z 28009KT 16/10 A302 RMK A01 T01560095  RH  069%=      5-min Rain = 0
KGU1 100727Z 26006KT 16/10 A302 RMK A01 T01560096  RH  069%=      5-min Rain = 0
KGU1 100728Z 28007KT 16/10 A302 RMK A01 T01560095  RH  069%=      5-min Rain = 0
KGU1 100729Z 26009KT 16/10 A302 RMK A01 T01570095  RH  069%=      5-min Rain = 0
KGU1 100730Z 28005KT 16/09 A302 RMK A01 T01580094  RH  068%=      5-min Rain = 0
KGU1 100731Z 28005KT 16/09 A302 RMK A01 T01580094  RH  068%=      5-min Rain = 0
KGU1 100732Z 26007KT 16/09 A302 RMK A01 T01570094  RH  068%=      5-min Rain = 0
KGU1 100733Z 27005KT 16/10 A302 RMK A01 T01570095  RH  068%=      5-min Rain = 0
KGU1 100734Z 28010G15KT 16/10 A302 RMK A01 T01570096  RH  069%=      5-min Rain = 0
KGU1 100735Z 27009KT 16/10 A302 RMK A01 T01560096  RH  069%=      5-min Rain = 0
KGU1 100736Z 27012KT 16/10 A302 RMK A01 T01570096  RH  069%=      5-min Rain = 0
KGU1 100737Z 26014KT 16/10 A302 RMK A01 T01570097  RH  070%=      5-min Rain = 0
KGU1 100738Z 27010KT 16/10 A302 RMK A01 T01580098  RH  070%=      5-min Rain = 0
KGU1 100739Z 27009KT 16/10 A302 RMK A01 T01570097  RH  069%=      5-min Rain = 0
KGU1 100740Z 27009KT 16/10 A302 RMK A01 T01570097  RH  070%=      5-min Rain = 0
KGU1 100741Z 26011KT 16/10 A302 RMK A01 T01560097  RH  070%=      5-min Rain = 0
KGU1 100742Z 27011KT 16/10 A302 RMK A01 T01560098  RH  070%=      5-min Rain = 0
KGU1 100743Z 27013G19KT 16/10 A302 RMK A01 T01560097  RH  070%=      5-min Rain = 0
KGU1 100744Z 27009KT 16/10 A302 RMK A01 T01560097  RH  070%=      5-min Rain = 0
KGU1 100745Z 27010KT 16/10 A302 RMK A01 T01550097  RH  071%=      5-min Rain = 0
KGU1 100746Z 28010KT 16/10 A302 RMK A01 T01550097  RH  070%=      5-min Rain = 0
KGU1 100747Z 28006KT 16/10 A302 RMK A01 T01560097  RH  070%=      5-min Rain = 0
KGU1 100748Z 28007KT 16/10 A302 RMK A01 T01550096  RH  070%=      5-min Rain = 0
KGU1 100749Z 27006KT 16/10 A302 RMK A01 T01560096  RH  070%=      5-min Rain = 0
KGU1 100750Z 28006KT 16/10 A302 RMK A01 T01560096  RH  070%=      5-min Rain = 0
KGU1 100751Z 28008KT 16/10 A302 RMK A01 T01550096  RH  070%=      5-min Rain = 0
KGU1 100752Z 29010KT 15/10 A302 RMK A01 T01540097  RH  071%=      5-min Rain = 0
KGU1 100753Z 28009KT 15/10 A302 RMK A01 T01540098  RH  071%=      5-min Rain = 0
KGU1 100754Z 29009KT 15/10 A302 RMK A01 T01540097  RH  071%=      5-min Rain = 0
KGU1 100755Z 29013KT 15/10 A302 RMK A01 T01530098  RH  072%=      5-min Rain = 0
KGU1 100756Z 29011KT 15/10 A302 RMK A01 T01530098  RH  072%=      5-min Rain = 0
KGU1 100757Z 27011KT 15/10 A3019 RMK A01 T01530098  RH  072%=      5-min Rain = 0
KGU1 100758Z 27008KT 15/10 A302 RMK A01 T01540098  RH  072%=      5-min Rain = 0
KGU1 100759Z 27006KT 15/10 A3019 RMK A01 T01540098  RH  071%=      5-min Rain = 0
KGU1 100800Z 29009KT 15/10 A3019 RMK A01 T01540098  RH  071%=      5-min Rain = 0
KGU1 100801Z 29013KT 15/10 A3019 RMK A01 T01540098  RH  072%=      5-min Rain = 0
KGU1 100802Z 29011KT 15/10 A3019 RMK A01 T01540098  RH  072%=      5-min Rain = 0
KGU1 100803Z 28009KT 15/10 A3019 RMK A01 T01540099  RH  072%=      5-min Rain = 0
KGU1 100804Z 29013KT 15/10 A3019 RMK A01 T01540099  RH  072%=      5-min Rain = 0
KGU1 100805Z 29013G18KT 15/10 A3019 RMK A01 T01540099  RH  072%=      5-min Rain = 0
KGU1 100806Z 30013KT 15/10 A3019 RMK A01 T01540098  RH  072%=      5-min Rain = 0
KGU1 100807Z 29012KT 15/10 A3019 RMK A01 T01540098  RH  072%=      5-min Rain = 0
KGU1 100808Z 30014KT 15/10 A3019 RMK A01 T01540099  RH  072%=      5-min Rain = 0
KGU1 100809Z 30015G20KT 15/10 A3019 RMK A01 T01540099  RH  072%=      5-min Rain = 0
KGU1 100810Z 29015KT 16/10 A3019 RMK A01 T01550099  RH  072%=      5-min Rain = 0
KGU1 100811Z 29015KT 16/10 A3019 RMK A01 T01550099  RH  072%=      5-min Rain = 0
KGU1 100812Z 29013KT 16/10 A3019 RMK A01 T01550099  RH  071%=      5-min Rain = 0
KGU1 100813Z 29014G19KT 16/10 A3019 RMK A01 T01560099  RH  071%=      5-min Rain = 0
KGU1 100814Z 28012KT 16/10 A3019 RMK A01 T01550099  RH  071%=      5-min Rain = 0
KGU1 100815Z 29012KT 16/10 A3019 RMK A01 T01550099  RH  071%=      5-min Rain = 0
KGU1 100816Z 28009KT 16/10 A3019 RMK A01 T01550099  RH  071%=      5-min Rain = 0
KGU1 100817Z 29010KT 15/10 A3019 RMK A01 T01540099  RH  072%=      5-min Rain = 0
KGU1 100818Z 28010KT 16/10 A3019 RMK A01 T01550098  RH  071%=      5-min Rain = 0
KGU1 100819Z 28010KT 16/10 A3019 RMK A01 T01550098  RH  071%=      5-min Rain = 0
KGU1 100820Z 29010G15KT 16/10 A3019 RMK A01 T01560099  RH  071%=      5-min Rain = 0
KGU1 100821Z 29011KT 16/10 A3019 RMK A01 T01560100  RH  072%=      5-min Rain = 0
KGU1 100822Z 28012KT 16/10 A3019 RMK A01 T01550101  RH  072%=      5-min Rain = 0
KGU1 100823Z 28011KT 16/10 A3019 RMK A01 T01550101  RH  073%=      5-min Rain = 0
KGU1 100824Z 29012KT 16/10 A3019 RMK A01 T01550101  RH  073%=      5-min Rain = 0
KGU1 100825Z 29013KT 16/10 A3019 RMK A01 T01550101  RH  072%=      5-min Rain = 0
KGU1 100826Z 28016KT 16/10 A3018 RMK A01 T01560101  RH  072%=      5-min Rain = 0
KGU1 100827Z 28011KT 16/10 A3019 RMK A01 T01570101  RH  072%=      5-min Rain = 0
KGU1 100828Z 29014KT 16/10 A3018 RMK A01 T01560101  RH  072%=      5-min Rain = 0
KGU1 100829Z 28013KT 16/10 A3018 RMK A01 T01560101  RH  072%=      5-min Rain = 0
KGU1 100830Z 28015KT 16/10 A3018 RMK A01 T01560101  RH  072%=      5-min Rain = 0
KGU1 100831Z 28013KT 16/10 A3019 RMK A01 T01560101  RH  072%=      5-min Rain = 0
KGU1 100832Z 29010KT 16/10 A3019 RMK A01 T01560101  RH  072%=      5-min Rain = 0
KGU1 100833Z 29009KT 16/10 A3019 RMK A01 T01550101  RH  073%=      5-min Rain = 0
KGU1 100834Z 28011G17KT 15/10 A3019 RMK A01 T01540101  RH  073%=      5-min Rain = 0
KGU1 100835Z 28014KT 16/10 A3018 RMK A01 T01550101  RH  073%=      5-min Rain = 0
KGU1 100836Z 28015KT 16/10 A3019 RMK A01 T01560102  RH  072%=      5-min Rain = 0
KGU1 100837Z 28012KT 16/10 A3019 RMK A01 T01570102  RH  072%=      5-min Rain = 0
KGU1 100838Z 28012KT 16/10 A3018 RMK A01 T01560102  RH  072%=      5-min Rain = 0
KGU1 100839Z 29012KT 16/10 A3019 RMK A01 T01560101  RH  072%=      5-min Rain = 0
KGU1 100840Z 28011KT 16/10 A3019 RMK A01 T01560101  RH  072%=      5-min Rain = 0
KGU1 100841Z 28008KT 16/10 A3019 RMK A01 T01560101  RH  072%=      5-min Rain = 0
KGU1 100842Z 29008KT 16/10 A3019 RMK A01 T01550101  RH  073%=      5-min Rain = 0
KGU1 100843Z 28008G13KT 15/10 A3019 RMK A01 T01540101  RH  073%=      5-min Rain = 0
KGU1 100844Z 27013KT 16/10 A3018 RMK A01 T01550101  RH  073%=      5-min Rain = 0
KGU1 100845Z 28012KT 16/10 A3018 RMK A01 T01560101  RH  072%=      5-min Rain = 0
KGU1 100846Z 28014KT 16/10 A3018 RMK A01 T01560102  RH  072%=      5-min Rain = 0
KGU1 100847Z 28011KT 16/10 A3018 RMK A01 T01560102  RH  072%=      5-min Rain = 0
KGU1 100848Z 28012KT 16/10 A3018 RMK A01 T01560102  RH  072%=      5-min Rain = 0
KGU1 100849Z 27012KT 16/10 A3018 RMK A01 T01560102  RH  072%=      5-min Rain = 0
KGU1 100850Z 28012KT 16/10 A3018 RMK A01 T01560101  RH  072%=      5-min Rain = 0
KGU1 100851Z 29013KT 16/10 A3018 RMK A01 T01560102  RH  072%=      5-min Rain = 0
KGU1 100852Z 30011KT 16/10 A3018 RMK A01 T01560102  RH  073%=      5-min Rain = 0
KGU1 100853Z 29013G19KT 16/10 A3018 RMK A01 T01550102  RH  073%=      5-min Rain = 0
KGU1 100854Z 29014KT 16/10 A3018 RMK A01 T01560102  RH  072%=      5-min Rain = 0
KGU1 100855Z 29010KT 16/10 A3018 RMK A01 T01560102  RH  072%=      5-min Rain = 0
KGU1 100856Z 29015KT 16/10 A3018 RMK A01 T01560102  RH  072%=      5-min Rain = 0
KGU1 100857Z 29015KT 16/10 A3018 RMK A01 T01560102  RH  072%=      5-min Rain = 0
KGU1 100858Z 29012KT 16/10 A3018 RMK A01 T01560102  RH  072%=      5-min Rain = 0
KGU1 100859Z 28013KT 16/10 A3018 RMK A01 T01560102  RH  072%=      5-min Rain = 0
KGU1 100900Z 28011KT 16/10 A3018 RMK A01 T01560102  RH  073%=      5-min Rain = 0
KGU1 100901Z 29012KT 16/10 A3018 RMK A01 T01550101  RH  073%=      5-min Rain = 0
KGU1 100902Z 29010KT 16/10 A3018 RMK A01 T01550101  RH  073%=      5-min Rain = 0
KGU1 100903Z 29010KT 15/10 A3018 RMK A01 T01540101  RH  073%=      5-min Rain = 0
KGU1 100904Z 29011KT 15/10 A3018 RMK A01 T01530101  RH  073%=      5-min Rain = 0
KGU1 100905Z 29013KT 15/10 A3018 RMK A01 T01540101  RH  073%=      5-min Rain = 0
KGU1 100906Z 29010KT 15/10 A3018 RMK A01 T01540101  RH  073%=      5-min Rain = 0
KGU1 100907Z 29010KT 15/10 A3018 RMK A01 T01540101  RH  073%=      5-min Rain = 0
KGU1 100908Z 27010KT 15/10 A3018 RMK A01 T01540101  RH  073%=      5-min Rain = 0
KGU1 100909Z 28010G15KT 15/10 A3018 RMK A01 T01540101  RH  073%=      5-min Rain = 0
KGU1 100910Z 28008KT 15/10 A3018 RMK A01 T01540101  RH  073%=      5-min Rain = 0
KGU1 100911Z 28010KT 15/10 A3018 RMK A01 T01540101  RH  073%=      5-min Rain = 0
KGU1 100912Z 28012KT 15/10 A3017 RMK A01 T01540101  RH  073%=      5-min Rain = 0
KGU1 100913Z 28011KT 16/10 A3017 RMK A01 T01550101  RH  072%=      5-min Rain = 0
KGU1 100914Z 28012KT 16/10 A3017 RMK A01 T01550101  RH  072%=      5-min Rain = 0
KGU1 100915Z 28012KT 16/10 A3017 RMK A01 T01560101  RH  072%=      5-min Rain = 0
KGU1 100916Z 28015KT 16/10 A3017 RMK A01 T01560101  RH  072%=      5-min Rain = 0
KGU1 100917Z 28012KT 16/10 A3017 RMK A01 T01570101  RH  072%=      5-min Rain = 0
KGU1 100918Z 28012KT 16/10 A3017 RMK A01 T01570101  RH  072%=      5-min Rain = 0
KGU1 100919Z 29009KT 16/10 A3017 RMK A01 T01570101  RH  072%=      5-min Rain = 0
KGU1 100920Z 29007KT 16/10 A3017 RMK A01 T01560101  RH  072%=      5-min Rain = 0
KGU1 100921Z 29009KT 16/10 A3017 RMK A01 T01550101  RH  072%=      5-min Rain = 0
KGU1 100922Z 29008KT 16/10 A3017 RMK A01 T01550101  RH  073%=      5-min Rain = 0
KGU1 100923Z 29007KT 15/10 A3017 RMK A01 T01540101  RH  073%=      5-min Rain = 0
KGU1 100924Z 28008KT 15/10 A3017 RMK A01 T01540100  RH  073%=      5-min Rain = 0
KGU1 100925Z 28011KT 15/10 A3017 RMK A01 T01540100  RH  072%=      5-min Rain = 0
KGU1 100926Z 29014KT 16/10 A3017 RMK A01 T01560100  RH  072%=      5-min Rain = 0
KGU1 100927Z 27011KT 16/10 A3017 RMK A01 T01570100  RH  071%=      5-min Rain = 0
KGU1 100928Z 27011G17KT 16/10 A3017 RMK A01 T01580099  RH  071%=      5-min Rain = 0
KGU1 100929Z 28009KT 16/10 A3017 RMK A01 T01580099  RH  071%=      5-min Rain = 0
KGU1 100930Z 28010G15KT 16/10 A3017 RMK A01 T01580100  RH  071%=      5-min Rain = 0
KGU1 100931Z 29011KT 16/10 A3017 RMK A01 T01570101  RH  071%=      5-min Rain = 0
KGU1 100932Z 27011KT 16/10 A3017 RMK A01 T01580100  RH  071%=      5-min Rain = 0
KGU1 100933Z 27010G15KT 16/10 A3017 RMK A01 T01580100  RH  071%=      5-min Rain = 0
KGU1 100934Z 27012KT 16/10 A3017 RMK A01 T01580100  RH  071%=      5-min Rain = 0
KGU1 100935Z 27010KT 16/10 A3017 RMK A01 T01580100  RH  071%=      5-min Rain = 0
KGU1 100936Z 27008KT 16/10 A3017 RMK A01 T01580100  RH  071%=      5-min Rain = 0
KGU1 100937Z 26011KT 16/10 A3017 RMK A01 T01580099  RH  070%=      5-min Rain = 0
KGU1 100938Z 26008KT 16/10 A3017 RMK A01 T01590099  RH  070%=      5-min Rain = 0
KGU1 100939Z 27011KT 16/10 A3017 RMK A01 T01590100  RH  070%=      5-min Rain = 0
KGU1 100940Z 25009G14KT 16/10 A3017 RMK A01 T01590099  RH  070%=      5-min Rain = 0
KGU1 100941Z 25008KT 16/10 A3017 RMK A01 T01580099  RH  070%=      5-min Rain = 0
KGU1 100942Z 24007G12KT 16/10 A3017 RMK A01 T01570098  RH  070%=      5-min Rain = 0
KGU1 100943Z 26007KT 16/10 A3017 RMK A01 T01570099  RH  071%=      5-min Rain = 0
KGU1 100944Z 27008KT 16/10 A3017 RMK A01 T01570099  RH  071%=      5-min Rain = 0
KGU1 100945Z 27007KT 16/10 A3017 RMK A01 T01570098  RH  071%=      5-min Rain = 0
KGU1 100946Z 26006KT 16/10 A3017 RMK A01 T01560098  RH  070%=      5-min Rain = 0
KGU1 100947Z 26008KT 16/10 A3017 RMK A01 T01560098  RH  070%=      5-min Rain = 0
KGU1 100948Z 26003KT 16/10 A3017 RMK A01 T01560098  RH  070%=      5-min Rain = 0
KGU1 100949Z 29002KT 16/10 A3017 RMK A01 T01570098  RH  070%=      5-min Rain = 0
KGU1 100950Z 31002KT 16/10 A3017 RMK A01 T01560098  RH  071%=      5-min Rain = 0
KGU1 100951Z 21004KT 16/10 A3017 RMK A01 T01550096  RH  070%=      5-min Rain = 0
KGU1 100952Z 21005KT 15/09 A3017 RMK A01 T01530093  RH  069%=      5-min Rain = 0
KGU1 100953Z 17005KT 15/08 A3017 RMK A01 T01450080  RH  067%=      5-min Rain = 0
KGU1 100954Z 16006KT 14/08 A3017 RMK A01 T01360076  RH  069%=      5-min Rain = 0
KGU1 100955Z 17007KT 13/08 A3017 RMK A01 T01290075  RH  071%=      5-min Rain = 0
KGU1 100956Z 19005KT 12/07 A3017 RMK A01 T01240074  RH  073%=      5-min Rain = 0
KGU1 100957Z 17007KT 12/07 A3017 RMK A01 T01210073  RH  074%=      5-min Rain = 0
KGU1 100958Z 17007KT 12/07 A3017 RMK A01 T01190071  RH  074%=      5-min Rain = 0
KGU1 100959Z 17006KT 12/07 A3017 RMK A01 T01170070  RH  075%=      5-min Rain = 0
KGU1 101000Z 17007KT 12/08 A3017 RMK A01 T01190075  RH  077%=      5-min Rain = 0
KGU1 101001Z 15005KT 12/07 A3017 RMK A01 T01190070  RH  074%=      5-min Rain = 0
KGU1 101002Z 17004KT 12/07 A3017 RMK A01 T01180073  RH  076%=      5-min Rain = 0
KGU1 101003Z 27003KT 12/08 A3017 RMK A01 T01190076  RH  077%=      5-min Rain = 0
KGU1 101004Z 26004KT 12/09 A3017 RMK A01 T01220085  RH  081%=      5-min Rain = 0
KGU1 101005Z 24004KT 13/09 A3017 RMK A01 T01280093  RH  082%=      5-min Rain = 0
KGU1 101006Z 22007KT 13/09 A3017 RMK A01 T01340094  RH  079%=      5-min Rain = 0
KGU1 101007Z 23005KT 14/09 A3017 RMK A01 T01390092  RH  075%=      5-min Rain = 0
KGU1 101008Z 20004KT 14/09 A3017 RMK A01 T01420092  RH  074%=      5-min Rain = 0
KGU1 101009Z 27002KT 14/09 A3017 RMK A01 T01430094  RH  075%=      5-min Rain = 0
KGU1 101010Z 27004KT 14/10 A3017 RMK A01 T01440096  RH  075%=      5-min Rain = 0
KGU1 101011Z 24006KT 15/10 A3017 RMK A01 T01460098  RH  075%=      5-min Rain = 0
KGU1 101012Z 25008G15KT 15/10 A3017 RMK A01 T01500099  RH  074%=      5-min Rain = 0
KGU1 101013Z 24007KT 15/10 A3017 RMK A01 T01520098  RH  073%=      5-min Rain = 0
KGU1 101014Z 22008KT 15/10 A3017 RMK A01 T01520098  RH  072%=      5-min Rain = 0
KGU1 101015Z 24006KT 15/09 A3017 RMK A01 T01500092  RH  070%=      5-min Rain = 0
KGU1 101016Z 23007KT 15/10 A3017 RMK A01 T01480097  RH  074%=      5-min Rain = 0
KGU1 101017Z 22005KT 15/10 A3017 RMK A01 T01500098  RH  073%=      5-min Rain = 0
KGU1 101018Z 24006KT 15/10 A3017 RMK A01 T01500097  RH  073%=      5-min Rain = 0
KGU1 101019Z 23006KT 15/10 A3017 RMK A01 T01500095  RH  072%=      5-min Rain = 0
KGU1 101020Z 31002KT 15/09 A3017 RMK A01 T01480093  RH  072%=      5-min Rain = 0
KGU1 101021Z 09002KT 14/08 A3017 RMK A01 T01430080  RH  068%=      5-min Rain = 0
KGU1 101022Z 05004KT 14/08 A3017 RMK A01 T01360078  RH  070%=      5-min Rain = 0
KGU1 101023Z 10004KT 13/08 A3017 RMK A01 T01310079  RH  073%=      5-min Rain = 0
KGU1 101024Z 09003KT 13/08 A3017 RMK A01 T01270078  RH  074%=      5-min Rain = 0
KGU1 101025Z 23001KT 13/08 A3017 RMK A01 T01250081  RH  077%=      5-min Rain = 0
KGU1 101026Z 29001KT 12/08 A3017 RMK A01 T01230078  RH  076%=      5-min Rain = 0
KGU1 101027Z 27004KT 12/09 A3017 RMK A01 T01240085  RH  079%=      5-min Rain = 0
KGU1 101028Z 25005KT 13/09 A3017 RMK A01 T01290092  RH  081%=      5-min Rain = 0
KGU1 101029Z 26009KT 14/10 A3017 RMK A01 T01360097  RH  080%=      5-min Rain = 0
KGU1 101030Z 25008KT 14/10 A3017 RMK A01 T01430098  RH  077%=      5-min Rain = 0
KGU1 101031Z 26006KT 15/10 A3017 RMK A01 T01470098  RH  075%=      5-min Rain = 0
KGU1 101032Z 29004KT 15/10 A3017 RMK A01 T01480097  RH  074%=      5-min Rain = 0
KGU1 101033Z 28003KT 15/10 A3017 RMK A01 T01480097  RH  074%=      5-min Rain = 0
KGU1 101034Z 25004KT 15/10 A3017 RMK A01 T01480097  RH  074%=      5-min Rain = 0
KGU1 101035Z 27005KT 15/10 A3017 RMK A01 T01480098  RH  074%=      5-min Rain = 0
KGU1 101036Z 28007KT 15/10 A3017 RMK A01 T01490097  RH  073%=      5-min Rain = 0
KGU1 101037Z 28007KT 15/10 A3017 RMK A01 T01500097  RH  073%=      5-min Rain = 0
KGU1 101038Z 28007KT 15/10 A3017 RMK A01 T01500098  RH  073%=      5-min Rain = 0
KGU1 101039Z 25005KT 15/10 A3017 RMK A01 T01500098  RH  073%=      5-min Rain = 0
KGU1 101040Z 21007KT 15/10 A3017 RMK A01 T01500097  RH  073%=      5-min Rain = 0
KGU1 101041Z 19007KT 15/09 A3017 RMK A01 T01450087  RH  070%=      5-min Rain = 0
KGU1 101042Z 21007KT 14/08 A3017 RMK A01 T01380082  RH  071%=      5-min Rain = 0
KGU1 101043Z 19003KT 13/08 A3017 RMK A01 T01320080  RH  073%=      5-min Rain = 0
KGU1 101044Z 20005KT 13/08 A3017 RMK A01 T01280078  RH  074%=      5-min Rain = 0
KGU1 101045Z 16004KT 13/08 A3017 RMK A01 T01260079  RH  075%=      5-min Rain = 0
KGU1 101046Z 27004KT 13/08 A3017 RMK A01 T01250082  RH  077%=      5-min Rain = 0
KGU1 101047Z 27005KT 13/09 A3017 RMK A01 T01300094  RH  081%=      5-min Rain = 0
KGU1 101048Z 30004KT 14/10 A3017 RMK A01 T01360095  RH  079%=      5-min Rain = 0
KGU1 101049Z 28006KT 14/10 A3017 RMK A01 T01400095  RH  077%=      5-min Rain = 0
KGU1 101050Z 26003KT 14/10 A3017 RMK A01 T01440097  RH  076%=      5-min Rain = 0
KGU1 101051Z 26004G9KT 15/10 A3017 RMK A01 T01460097  RH  075%=      5-min Rain = 0
KGU1 101052Z 27005KT 15/10 A3017 RMK A01 T01470097  RH  074%=      5-min Rain = 0
KGU1 101053Z 20002KT 15/10 A3017 RMK A01 T01490097  RH  073%=      5-min Rain = 0
KGU1 101054Z 24003G9KT 15/10 A3017 RMK A01 T01490097  RH  073%=      5-min Rain = 0
KGU1 101055Z 30003G8KT 15/10 A3017 RMK A01 T01490095  RH  072%=      5-min Rain = 0
KGU1 101056Z 27006KT 15/09 A3017 RMK A01 T01480094  RH  072%=      5-min Rain = 0
KGU1 101057Z 26007KT 15/10 A3017 RMK A01 T01480097  RH  074%=      5-min Rain = 0
KGU1 101058Z 22006KT 15/10 A3017 RMK A01 T01490098  RH  074%=      5-min Rain = 0
KGU1 101059Z 20005G10KT 15/09 A3017 RMK A01 T01480094  RH  072%=      5-min Rain = 0
KGU1 101100Z 19003KT 15/09 A3017 RMK A01 T01470091  RH  071%=      5-min Rain = 0
KGU1 101101Z 16005KT 14/08 A3017 RMK A01 T01400083  RH  070%=      5-min Rain = 0
KGU1 101102Z 17005KT 13/08 A3017 RMK A01 T01330081  RH  073%=      5-min Rain = 0
KGU1 101103Z 23004KT 13/09 A3017 RMK A01 T01310088  RH  078%=      5-min Rain = 0
KGU1 101104Z 25008KT 14/09 A3017 RMK A01 T01350094  RH  079%=      5-min Rain = 0
KGU1 101105Z 20006KT 14/10 A3017 RMK A01 T01410095  RH  076%=      5-min Rain = 0
KGU1 101106Z 16005KT 14/09 A3017 RMK A01 T01410089  RH  073%=      5-min Rain = 0
KGU1 101107Z 07003KT 14/08 A3017 RMK A01 T01360082  RH  071%=      5-min Rain = 0
KGU1 101108Z 02002KT 13/08 A3017 RMK A01 T01300079  RH  073%=      5-min Rain = 0
KGU1 101109Z 23005G10KT 13/08 A3017 RMK A01 T01270082  RH  076%=      5-min Rain = 0
KGU1 101110Z 19006KT 13/09 A3017 RMK A01 T01330091  RH  078%=      5-min Rain = 0
KGU1 101111Z 16005KT 14/08 A3017 RMK A01 T01350084  RH  073%=      5-min Rain = 0
KGU1 101112Z 18003KT 13/08 A3017 RMK A01 T01330081  RH  073%=      5-min Rain = 0
KGU1 101113Z 17005KT 13/08 A3017 RMK A01 T01300078  RH  073%=      5-min Rain = 0
KGU1 101114Z 15006KT 12/08 A3017 RMK A01 T01240076  RH  074%=      5-min Rain = 0
KGU1 101115Z 12003KT 12/08 A3017 RMK A01 T01210075  RH  076%=      5-min Rain = 0
KGU1 101116Z 07002KT 12/08 A3017 RMK A01 T01180075  RH  077%=      5-min Rain = 0
KGU1 101117Z 04001KT 12/08 A3017 RMK A01 T01170076  RH  078%=      5-min Rain = 0
KGU1 101118Z 16001KT 12/08 A3017 RMK A01 T01160075  RH  078%=      5-min Rain = 0
KGU1 101119Z 11005KT 12/08 A3017 RMK A01 T01160076  RH  079%=      5-min Rain = 0
KGU1 101120Z 10002KT 12/08 A3017 RMK A01 T01170076  RH  078%=      5-min Rain = 0
KGU1 101121Z 25005G12KT 12/08 A3016 RMK A01 T01170078  RH  079%=      5-min Rain = 0
KGU1 101122Z 29004G9KT 12/08 A3017 RMK A01 T01180080  RH  080%=      5-min Rain = 0
KGU1 101123Z 25008KT 12/09 A3017 RMK A01 T01240089  RH  082%=      5-min Rain = 0
KGU1 101124Z 33006KT 13/09 A3017 RMK A01 T01330092  RH  079%=      5-min Rain = 0
KGU1 101125Z 34006KT 14/09 A3017 RMK A01 T01350088  RH  075%=      5-min Rain = 0
KGU1 101126Z 04002KT 14/09 A3017 RMK A01 T01360088  RH  075%=      5-min Rain = 0
KGU1 101127Z 07002KT 14/08 A3017 RMK A01 T01360084  RH  073%=      5-min Rain = 0
KGU1 101128Z 09006KT 13/08 A3017 RMK A01 T01330081  RH  073%=      5-min Rain = 0
KGU1 101129Z 14003KT 13/08 A3017 RMK A01 T01280078  RH  074%=      5-min Rain = 0
KGU1 101130Z 28003KT 13/08 A3017 RMK A01 T01250080  RH  076%=      5-min Rain = 0
KGU1 101131Z 29001KT 13/08 A3017 RMK A01 T01250083  RH  078%=      5-min Rain = 0
KGU1 101132Z 35002KT 13/08 A3017 RMK A01 T01260084  RH  078%=      5-min Rain = 0
KGU1 101133Z 25002G11KT 13/08 A3017 RMK A01 T01260081  RH  076%=      5-min Rain = 0
KGU1 101134Z 16008KT 13/08 A3017 RMK A01 T01270084  RH  078%=      5-min Rain = 0
KGU1 101135Z 14003KT 13/09 A3017 RMK A01 T01290086  RH  077%=      5-min Rain = 0
KGU1 101136Z 05006KT 13/08 A3017 RMK A01 T01270078  RH  074%=      5-min Rain = 0
KGU1 101137Z 08006KT 12/08 A3017 RMK A01 T01210076  RH  076%=      5-min Rain = 0
KGU1 101138Z 07007KT 12/08 A3017 RMK A01 T01210080  RH  078%=      5-min Rain = 0
KGU1 101139Z 07007KT 12/08 A3017 RMK A01 T01200077  RH  077%=      5-min Rain = 0
KGU1 101140Z 08009KT 12/08 A3016 RMK A01 T01200079  RH  078%=      5-min Rain = 0
KGU1 101141Z 10009KT 12/08 A3016 RMK A01 T01200075  RH  076%=      5-min Rain = 0
KGU1 101142Z 10008KT 12/07 A3017 RMK A01 T01180073  RH  076%=      5-min Rain = 0
KGU1 101143Z 10010KT 12/07 A3016 RMK A01 T01150071  RH  077%=      5-min Rain = 0
KGU1 101144Z 10011KT 11/07 A3016 RMK A01 T01130071  RH  078%=      5-min Rain = 0
KGU1 101145Z 10011KT 11/07 A3016 RMK A01 T01110071  RH  078%=      5-min Rain = 0
KGU1 101146Z 10008KT 11/07 A3016 RMK A01 T01120072  RH  078%=      5-min Rain = 0
KGU1 101147Z 11005KT 11/07 A3017 RMK A01 T01130073  RH  078%=      5-min Rain = 0
KGU1 101148Z 13008KT 11/07 A3017 RMK A01 T01130072  RH  078%=      5-min Rain = 0
KGU1 101149Z 12008KT 11/07 A3017 RMK A01 T01130071  RH  077%=      5-min Rain = 0
KGU1 101150Z 13010KT 11/07 A3017 RMK A01 T01130072  RH  078%=      5-min Rain = 0
KGU1 101151Z 13010KT 11/07 A3017 RMK A01 T01140073  RH  078%=      5-min Rain = 0
KGU1 101152Z 13010KT 12/08 A3017 RMK A01 T01150075  RH  079%=      5-min Rain = 0
KGU1 101153Z 13010KT 12/07 A3017 RMK A01 T01150073  RH  077%=      5-min Rain = 0
KGU1 101154Z 14011KT 11/07 A3017 RMK A01 T01140072  RH  078%=      5-min Rain = 0
KGU1 101155Z 14010KT 11/07 A3017 RMK A01 T01130072  RH  078%=      5-min Rain = 0
KGU1 101156Z 13008KT 11/07 A3017 RMK A01 T01120071  RH  078%=      5-min Rain = 0
KGU1 101157Z 14008KT 11/07 A3017 RMK A01 T01130073  RH  078%=      5-min Rain = 0
KGU1 101158Z 14007KT 11/07 A3017 RMK A01 T01140073  RH  078%=      5-min Rain = 0
KGU1 101159Z 14006KT 11/07 A3017 RMK A01 T01140072  RH  077%=      5-min Rain = 0
KGU1 101200Z 13007KT 11/07 A3017 RMK A01 T01140072  RH  077%=      5-min Rain = 0
KGU1 101201Z 12007KT 11/07 A3016 RMK A01 T01130072  RH  078%=      5-min Rain = 0
KGU1 101202Z 15005KT 11/07 A3017 RMK A01 T01130072  RH  078%=      5-min Rain = 0
KGU1 101203Z 15004KT 11/07 A3017 RMK A01 T01130072  RH  078%=      5-min Rain = 0
KGU1 101204Z 19003KT 11/07 A3017 RMK A01 T01130073  RH  078%=      5-min Rain = 0
KGU1 101205Z 25003KT 11/07 A3017 RMK A01 T01130072  RH  078%=      5-min Rain = 0
KGU1 101206Z 20002KT 11/07 A3017 RMK A01 T01120072  RH  078%=      5-min Rain = 0
KGU1 101207Z 16001KT 11/07 A3017 RMK A01 T01120073  RH  079%=      5-min Rain = 0
KGU1 101208Z 27002KT 11/07 A3017 RMK A01 T01120073  RH  079%=      5-min Rain = 0
KGU1 101209Z 30004KT 11/07 A3017 RMK A01 T01120073  RH  079%=      5-min Rain = 0
KGU1 101210Z 30003KT 11/07 A3017 RMK A01 T01110073  RH  079%=      5-min Rain = 0
KGU1 101211Z 27001KT 11/07 A3017 RMK A01 T01110073  RH  080%=      5-min Rain = 0
KGU1 101212Z 15002KT 11/07 A3016 RMK A01 T01120074  RH  080%=      5-min Rain = 0
KGU1 101213Z 11001KT 11/07 A3016 RMK A01 T01120074  RH  079%=      5-min Rain = 0
KGU1 101214Z 32002KT 11/07 A3017 RMK A01 T01130073  RH  079%=      5-min Rain = 0
KGU1 101215Z 28001KT 11/07 A3017 RMK A01 T01130074  RH  079%=      5-min Rain = 0
KGU1 101216Z 23001KT 11/07 A3017 RMK A01 T01130074  RH  079%=      5-min Rain = 0
KGU1 101217Z 18000KT 11/08 A3017 RMK A01 T01140075  RH  079%=      5-min Rain = 0
KGU1 101218Z 00000KT 11/07 A3017 RMK A01 T01140074  RH  079%=      5-min Rain = 0
KGU1 101219Z 25000KT 11/07 A3017 RMK A01 T01140074  RH  079%=      5-min Rain = 0
KGU1 101220Z 04001KT 11/07 A3017 RMK A01 T01140074  RH  079%=      5-min Rain = 0
KGU1 101221Z 06002KT 11/08 A3017 RMK A01 T01130075  RH  079%=      5-min Rain = 0
KGU1 101222Z 07001KT 11/08 A3016 RMK A01 T01140075  RH  079%=      5-min Rain = 0
KGU1 101223Z 07002KT 11/07 A3016 RMK A01 T01140074  RH  079%=      5-min Rain = 0
KGU1 101224Z 06000KT 11/07 A3017 RMK A01 T01130074  RH  079%=      5-min Rain = 0
KGU1 101225Z 09002KT 11/07 A3016 RMK A01 T01120074  RH  079%=      5-min Rain = 0
KGU1 101226Z 09003KT 11/07 A3016 RMK A01 T01120074  RH  080%=      5-min Rain = 0
KGU1 101227Z 10001KT 11/07 A3016 RMK A01 T01130074  RH  079%=      5-min Rain = 0
KGU1 101228Z 05001KT 11/07 A3016 RMK A01 T01110074  RH  080%=      5-min Rain = 0
KGU1 101229Z 07000KT 11/07 A3016 RMK A01 T01100074  RH  080%=      5-min Rain = 0
KGU1 101230Z 10001KT 11/07 A3016 RMK A01 T01100074  RH  081%=      5-min Rain = 0
KGU1 101231Z 07001KT 11/07 A3016 RMK A01 T01100074  RH  081%=      5-min Rain = 0
KGU1 101232Z 06002KT 11/08 A3017 RMK A01 T01100075  RH  081%=      5-min Rain = 0
KGU1 101233Z 10001KT 11/08 A3016 RMK A01 T01110075  RH  080%=      5-min Rain = 0
KGU1 101234Z 32001KT 11/08 A3017 RMK A01 T01110076  RH  081%=      5-min Rain = 0
KGU1 101235Z 29005KT 12/08 A3016 RMK A01 T01150084  RH  084%=      5-min Rain = 0
KGU1 101236Z 30010KT 13/09 A3017 RMK A01 T01250094  RH  084%=      5-min Rain = 0
KGU1 101237Z 32009KT 14/09 A3017 RMK A01 T01370094  RH  078%=      5-min Rain = 0
KGU1 101238Z 33008KT 14/09 A3017 RMK A01 T01390089  RH  074%=      5-min Rain = 0
KGU1 101239Z 30008G15KT 14/09 A3016 RMK A01 T01420094  RH  075%=      5-min Rain = 0
KGU1 101240Z 29010KT 15/10 A3016 RMK A01 T01460095  RH  074%=      5-min Rain = 0
KGU1 101241Z 30015KT 15/10 A3016 RMK A01 T01500096  RH  072%=      5-min Rain = 0
KGU1 101242Z 31013G18KT 15/10 A3017 RMK A01 T01530096  RH  071%=      5-min Rain = 0
KGU1 101243Z 30012G18KT 15/10 A3016 RMK A01 T01540096  RH  070%=      5-min Rain = 0
KGU1 101244Z 29013KT 16/10 A3016 RMK A01 T01550096  RH  070%=      5-min Rain = 0
KGU1 101245Z 29014G19KT 16/10 A3016 RMK A01 T01560096  RH  070%=      5-min Rain = 0
KGU1 101246Z 30015KT 16/10 A3016 RMK A01 T01560095  RH  069%=      5-min Rain = 0
KGU1 101247Z 30014KT 16/10 A3016 RMK A01 T01570095  RH  069%=      5-min Rain = 0
KGU1 101248Z 29017G22KT 16/10 A3016 RMK A01 T01570095  RH  069%=      5-min Rain = 0
KGU1 101249Z 30015KT 16/10 A3016 RMK A01 T01580095  RH  068%=      5-min Rain = 0
KGU1 101250Z 30012KT 16/10 A3017 RMK A01 T01580095  RH  068%=      5-min Rain = 0
KGU1 101251Z 32011KT 16/10 A3017 RMK A01 T01570095  RH  069%=      5-min Rain = 0
KGU1 101252Z 30010G17KT 16/09 A3017 RMK A01 T01550094  RH  069%=      5-min Rain = 0
KGU1 101253Z 31013KT 16/09 A3017 RMK A01 T01550093  RH  069%=      5-min Rain = 0
KGU1 101254Z 30010KT 16/09 A3017 RMK A01 T01570094  RH  068%=      5-min Rain = 0
KGU1 101255Z 30009KT 16/09 A3017 RMK A01 T01560094  RH  068%=      5-min Rain = 0
KGU1 101256Z 30013KT 16/09 A3017 RMK A01 T01550093  RH  069%=      5-min Rain = 0
KGU1 101257Z 29014KT 16/09 A3017 RMK A01 T01570094  RH  068%=      5-min Rain = 0
KGU1 101258Z 29012KT 16/09 A3017 RMK A01 T01570094  RH  068%=      5-min Rain = 0
KGU1 101259Z 29011KT 16/09 A3017 RMK A01 T01570094  RH  068%=      5-min Rain = 0
KGU1 101300Z 28015KT 16/09 A3016 RMK A01 T01560093  RH  068%=      5-min Rain = 0
KGU1 101301Z 29012KT 16/09 A3016 RMK A01 T01580093  RH  067%=      5-min Rain = 0
KGU1 101302Z 29012KT 16/09 A3016 RMK A01 T01590093  RH  067%=      5-min Rain = 0
KGU1 101303Z 28017G22KT 16/09 A3016 RMK A01 T01580093  RH  067%=      5-min Rain = 0
KGU1 101304Z 29012KT 16/09 A3016 RMK A01 T01590094  RH  067%=      5-min Rain = 0
KGU1 101305Z 29015G20KT 16/09 A3016 RMK A01 T01580094  RH  068%=      5-min Rain = 0
KGU1 101306Z 28014KT 16/10 A3016 RMK A01 T01580095  RH  068%=      5-min Rain = 0
KGU1 101307Z 28016G21KT 16/10 A3016 RMK A01 T01580096  RH  068%=      5-min Rain = 0
KGU1 101308Z 29017KT 16/10 A3016 RMK A01 T01580095  RH  068%=      5-min Rain = 0
KGU1 101309Z 28018KT 16/10 A3016 RMK A01 T01590095  RH  068%=      5-min Rain = 0
KGU1 101310Z 29016KT 16/10 A3016 RMK A01 T01590095  RH  068%=      5-min Rain = 0
KGU1 101311Z 28015G20KT 16/10 A3016 RMK A01 T01590096  RH  068%=      5-min Rain = 0
KGU1 101312Z 29015G20KT 16/10 A3016 RMK A01 T01590095  RH  068%=      5-min Rain = 0
KGU1 101313Z 28014KT 16/10 A3016 RMK A01 T01590095  RH  068%=      5-min Rain = 0
KGU1 101314Z 29014KT 16/10 A3016 RMK A01 T01580095  RH  068%=      5-min Rain = 0
KGU1 101315Z 29016KT 16/10 A3016 RMK A01 T01580095  RH  068%=      5-min Rain = 0
KGU1 101316Z 29013KT 16/10 A3016 RMK A01 T01590095  RH  068%=      5-min Rain = 0
KGU1 101317Z 29013KT 16/10 A3016 RMK A01 T01580095  RH  068%=      5-min Rain = 0
KGU1 101318Z 29014KT 16/10 A3016 RMK A01 T01580096  RH  069%=      5-min Rain = 0
KGU1 101319Z 29014KT 16/10 A3016 RMK A01 T01570096  RH  069%=      5-min Rain = 0
KGU1 101320Z 29016KT 16/10 A3016 RMK A01 T01570096  RH  069%=      5-min Rain = 0
KGU1 101321Z 30015KT 16/10 A3016 RMK A01 T01580096  RH  069%=      5-min Rain = 0
KGU1 101322Z 29015KT 16/10 A3016 RMK A01 T01580096  RH  069%=      5-min Rain = 0
KGU1 101323Z 29015KT 16/10 A3016 RMK A01 T01580095  RH  069%=      5-min Rain = 0
KGU1 101324Z 28013KT 16/10 A3016 RMK A01 T01580095  RH  068%=      5-min Rain = 0
KGU1 101325Z 28013KT 16/10 A3016 RMK A01 T01580095  RH  068%=      5-min Rain = 0
KGU1 101326Z 28014KT 16/10 A3016 RMK A01 T01590095  RH  068%=      5-min Rain = 0
KGU1 101327Z 28014KT 16/10 A3016 RMK A01 T01590095  RH  068%=      5-min Rain = 0
KGU1 101328Z 28014KT 16/09 A3016 RMK A01 T01590094  RH  067%=      5-min Rain = 0
KGU1 101329Z 28013G18KT 16/09 A3016 RMK A01 T01600094  RH  067%=      5-min Rain = 0
KGU1 101330Z 28012KT 16/09 A3016 RMK A01 T01610094  RH  066%=      5-min Rain = 0
KGU1 101331Z 28015KT 16/09 A3016 RMK A01 T01610093  RH  066%=      5-min Rain = 0
KGU1 101332Z 28014KT 16/09 A3016 RMK A01 T01610093  RH  066%=      5-min Rain = 0
KGU1 101333Z 27014KT 16/09 A3016 RMK A01 T01620094  RH  066%=      5-min Rain = 0
KGU1 101334Z 28015KT 16/09 A3016 RMK A01 T01610094  RH  066%=      5-min Rain = 0
KGU1 101335Z 28018KT 16/09 A3016 RMK A01 T01610094  RH  066%=      5-min Rain = 0
KGU1 101336Z 29013G18KT 16/10 A3016 RMK A01 T01620095  RH  066%=      5-min Rain = 0
KGU1 101337Z 29017KT 16/10 A3016 RMK A01 T01610095  RH  067%=      5-min Rain = 0
KGU1 101338Z 28012KT 16/10 A3016 RMK A01 T01620095  RH  067%=      5-min Rain = 0
KGU1 101339Z 28013KT 16/10 A3016 RMK A01 T01610095  RH  067%=      5-min Rain = 0
KGU1 101340Z 29013KT 16/10 A3016 RMK A01 T01610095  RH  067%=      5-min Rain = 0
KGU1 101341Z 28015KT 16/10 A3016 RMK A01 T01610095  RH  067%=      5-min Rain = 0
KGU1 101342Z 27016G21KT 16/10 A3016 RMK A01 T01610095  RH  067%=      5-min Rain = 0
KGU1 101343Z 28018KT 16/10 A3016 RMK A01 T01620095  RH  066%=      5-min Rain = 0
KGU1 101344Z 29017KT 16/10 A3016 RMK A01 T01630095  RH  066%=      5-min Rain = 0
KGU1 101345Z 28013G18KT 16/10 A3016 RMK A01 T01640095  RH  066%=      5-min Rain = 0
KGU1 101346Z 28015KT 16/10 A3016 RMK A01 T01640095  RH  066%=      5-min Rain = 0
KGU1 101347Z 28014KT 16/10 A3016 RMK A01 T01640095  RH  065%=      5-min Rain = 0
KGU1 101348Z 28015KT 17/10 A3016 RMK A01 T01650095  RH  065%=      5-min Rain = 0
KGU1 101349Z 29013KT 17/10 A3016 RMK A01 T01660095  RH  065%=      5-min Rain = 0
KGU1 101350Z 28011KT 17/10 A3016 RMK A01 T01660096  RH  065%=      5-min Rain = 0
KGU1 101351Z 27012KT 17/10 A3016 RMK A01 T01660096  RH  065%=      5-min Rain = 0
KGU1 101352Z 28012G17KT 17/10 A3016 RMK A01 T01670096  RH  065%=      5-min Rain = 0
KGU1 101353Z 28013KT 17/10 A3016 RMK A01 T01670095  RH  065%=      5-min Rain = 0
KGU1 101354Z 28016G21KT 17/10 A3016 RMK A01 T01680096  RH  065%=      5-min Rain = 0
KGU1 101355Z 29012KT 17/10 A3016 RMK A01 T01680096  RH  065%=      5-min Rain = 0
KGU1 101356Z 28014KT 17/10 A3016 RMK A01 T01680096  RH  065%=      5-min Rain = 0
KGU1 101357Z 28016KT 17/09 A3016 RMK A01 T01680094  RH  064%=      5-min Rain = 0
KGU1 101358Z 27019KT 17/09 A3016 RMK A01 T01680094  RH  063%=      5-min Rain = 0
KGU1 101359Z 28016G21KT 17/09 A3016 RMK A01 T01690093  RH  063%=      5-min Rain = 0
KGU1 101400Z 29018KT 17/09 A3016 RMK A01 T01690094  RH  063%=      5-min Rain = 0
KGU1 101401Z 27014KT 17/10 A3016 RMK A01 T01690095  RH  063%=      5-min Rain = 0
KGU1 101402Z 28017KT 17/09 A3016 RMK A01 T01680094  RH  064%=      5-min Rain = 0
KGU1 101403Z 28019KT 17/09 A3016 RMK A01 T01690094  RH  063%=      5-min Rain = 0
KGU1 101404Z 28016KT 17/09 A3016 RMK A01 T01690094  RH  063%=      5-min Rain = 0
KGU1 101405Z 28014KT 17/10 A3016 RMK A01 T01700095  RH  063%=      5-min Rain = 0
KGU1 101406Z 28015KT 17/10 A3016 RMK A01 T01700095  RH  063%=      5-min Rain = 0
KGU1 101407Z 28015KT 17/09 A3016 RMK A01 T01700094  RH  063%=      5-min Rain = 0
KGU1 101408Z 27014KT 17/09 A3016 RMK A01 T01700094  RH  063%=      5-min Rain = 0
KGU1 101409Z 28012KT 17/10 A3016 RMK A01 T01700095  RH  063%=      5-min Rain = 0
KGU1 101410Z 27013KT 17/10 A3016 RMK A01 T01700095  RH  063%=      5-min Rain = 0
KGU1 101411Z 28014KT 17/09 A3016 RMK A01 T01710094  RH  063%=      5-min Rain = 0
KGU1 101412Z 27014KT 17/09 A3016 RMK A01 T01710094  RH  063%=      5-min Rain = 0
KGU1 101413Z 28017KT 17/09 A3016 RMK A01 T01710094  RH  062%=      5-min Rain = 0
KGU1 101414Z 28013G18KT 17/09 A3016 RMK A01 T01710094  RH  062%=      5-min Rain = 0
KGU1 101415Z 28017KT 17/10 A3016 RMK A01 T01710095  RH  063%=      5-min Rain = 0
KGU1 101416Z 29017KT 17/10 A3016 RMK A01 T01700095  RH  063%=      5-min Rain = 0
KGU1 101417Z 29015KT 17/09 A3016 RMK A01 T01700093  RH  062%=      5-min Rain = 0
KGU1 101418Z 27011KT 17/09 A3016 RMK A01 T01710093  RH  062%=      5-min Rain = 0
KGU1 101419Z 27013G18KT 17/09 A3016 RMK A01 T01710094  RH  062%=      5-min Rain = 0
KGU1 101420Z 28011KT 17/09 A3016 RMK A01 T01700094  RH  063%=      5-min Rain = 0
KGU1 101421Z 28013KT 17/09 A3016 RMK A01 T01700094  RH  063%=      5-min Rain = 0
KGU1 101422Z 28017KT 17/09 A3016 RMK A01 T01700093  RH  062%=      5-min Rain = 0
KGU1 101423Z 28015KT 17/09 A3016 RMK A01 T01700093  RH  062%=      5-min Rain = 0
KGU1 101424Z 28013G19KT 17/09 A3016 RMK A01 T01690093  RH  062%=      5-min Rain = 0
KGU1 101425Z 28017KT 17/09 A3016 RMK A01 T01700090  RH  061%=      5-min Rain = 0
KGU1 101426Z 28018KT 17/09 A3016 RMK A01 T01700091  RH  061%=      5-min Rain = 0
KGU1 101427Z 27019KT 17/09 A3016 RMK A01 T01700090  RH  061%=      5-min Rain = 0
KGU1 101428Z 27015KT 17/09 A3016 RMK A01 T01700091  RH  061%=      5-min Rain = 0
KGU1 101429Z 28014KT 17/09 A3016 RMK A01 T01700092  RH  062%=      5-min Rain = 0
KGU1 101430Z 28017KT 17/09 A3016 RMK A01 T01690092  RH  062%=      5-min Rain = 0
KGU1 101431Z 27015KT 17/09 A3016 RMK A01 T01700092  RH  062%=      5-min Rain = 0
KGU1 101432Z 29016KT 17/09 A3016 RMK A01 T01690092  RH  062%=      5-min Rain = 0
KGU1 101433Z 27015KT 17/09 A3016 RMK A01 T01690091  RH  062%=      5-min Rain = 0
KGU1 101434Z 28015KT 17/09 A3016 RMK A01 T01700091  RH  062%=      5-min Rain = 0
KGU1 101435Z 28013KT 17/09 A3016 RMK A01 T01700092  RH  062%=      5-min Rain = 0
KGU1 101436Z 28015G20KT 17/09 A3016 RMK A01 T01690092  RH  062%=      5-min Rain = 0
KGU1 101437Z 28017G22KT 17/09 A3016 RMK A01 T01690091  RH  062%=      5-min Rain = 0
KGU1 101438Z 27016KT 17/09 A3016 RMK A01 T01690090  RH  061%=      5-min Rain = 0
KGU1 101439Z 27015KT 17/09 A3016 RMK A01 T01700091  RH  061%=      5-min Rain = 0
KGU1 101440Z 28012KT 17/09 A3016 RMK A01 T01700091  RH  062%=      5-min Rain = 0
KGU1 101441Z 27015KT 17/09 A3016 RMK A01 T01700091  RH  061%=      5-min Rain = 0
KGU1 101442Z 28016KT 17/09 A3016 RMK A01 T01700091  RH  062%=      5-min Rain = 0
KGU1 101443Z 28014KT 17/09 A3016 RMK A01 T01700092  RH  062%=      5-min Rain = 0
KGU1 101444Z 28014G19KT 17/09 A3016 RMK A01 T01690092  RH  062%=      5-min Rain = 0
KGU1 101445Z 28016KT 17/09 A3016 RMK A01 T01690090  RH  061%=      5-min Rain = 0
KGU1 101446Z 28013KT 17/09 A3016 RMK A01 T01700089  RH  061%=      5-min Rain = 0
KGU1 101447Z 27013KT 17/09 A3016 RMK A01 T01710089  RH  060%=      5-min Rain = 0
KGU1 101448Z 28014KT 17/09 A3016 RMK A01 T01710089  RH  060%=      5-min Rain = 0
KGU1 101449Z 28011KT 17/09 A3016 RMK A01 T01710090  RH  061%=      5-min Rain = 0
KGU1 101450Z 29015KT 17/09 A3016 RMK A01 T01710090  RH  061%=      5-min Rain = 0
KGU1 101451Z 28017G22KT 17/09 A3016 RMK A01 T01710089  RH  060%=      5-min Rain = 0
KGU1 101452Z 27017G22KT 17/09 A3016 RMK A01 T01720088  RH  060%=      5-min Rain = 0
KGU1 101453Z 28015KT 17/09 A3016 RMK A01 T01720090  RH  060%=      5-min Rain = 0
KGU1 101454Z 28017KT 17/09 A3016 RMK A01 T01720090  RH  060%=      5-min Rain = 0
KGU1 101455Z 28016KT 17/09 A3016 RMK A01 T01720090  RH  061%=      5-min Rain = 0
KGU1 101456Z 28011KT 17/09 A3017 RMK A01 T01720091  RH  061%=      5-min Rain = 0
KGU1 101457Z 28012KT 17/09 A3016 RMK A01 T01710090  RH  061%=      5-min Rain = 0
KGU1 101458Z 27012KT 17/09 A3016 RMK A01 T01720090  RH  060%=      5-min Rain = 0
KGU1 101459Z 28011KT 17/09 A3016 RMK A01 T01720090  RH  060%=      5-min Rain = 0
KGU1 101500Z 28014KT 17/09 A3016 RMK A01 T01720091  RH  060%=      5-min Rain = 0
KGU1 101501Z 28016KT 17/09 A3016 RMK A01 T01720090  RH  060%=      5-min Rain = 0
KGU1 101502Z 28017KT 17/09 A3016 RMK A01 T01720089  RH  060%=      5-min Rain = 0
KGU1 101503Z 28015KT 17/09 A3016 RMK A01 T01730090  RH  060%=      5-min Rain = 0
KGU1 101504Z 27014KT 17/09 A3016 RMK A01 T01730090  RH  060%=      5-min Rain = 0
KGU1 101505Z 28014KT 17/09 A3016 RMK A01 T01730089  RH  059%=      5-min Rain = 0
KGU1 101506Z 28012KT 17/09 A3016 RMK A01 T01730090  RH  060%=      5-min Rain = 0
KGU1 101507Z 29015KT 17/09 A3016 RMK A01 T01730089  RH  059%=      5-min Rain = 0
KGU1 101508Z 28016KT 17/09 A3016 RMK A01 T01740089  RH  059%=      5-min Rain = 0
KGU1 101509Z 28011KT 17/09 A3016 RMK A01 T01740090  RH  059%=      5-min Rain = 0
KGU1 101510Z 29015G20KT 17/09 A3016 RMK A01 T01740089  RH  059%=      5-min Rain = 0
KGU1 101511Z 29015KT 18/09 A3016 RMK A01 T01750088  RH  058%=      5-min Rain = 0
KGU1 101512Z 28014G20KT 18/09 A3016 RMK A01 T01750089  RH  059%=      5-min Rain = 0
KGU1 101513Z 27018KT 18/09 A3016 RMK A01 T01760087  RH  058%=      5-min Rain = 0
KGU1 101514Z 28016G21KT 18/09 A3016 RMK A01 T01770088  RH  058%=      5-min Rain = 0
KGU1 101515Z 29015KT 18/09 A3016 RMK A01 T01770089  RH  058%=      5-min Rain = 0
KGU1 101516Z 28014G20KT 18/09 A3016 RMK A01 T01760090  RH  059%=      5-min Rain = 0
KGU1 101517Z 28016G21KT 18/09 A3016 RMK A01 T01760089  RH  058%=      5-min Rain = 0
KGU1 101518Z 28017KT 18/09 A3016 RMK A01 T01760087  RH  057%=      5-min Rain = 0
KGU1 101519Z 28016KT 18/09 A3016 RMK A01 T01770087  RH  057%=      5-min Rain = 0
KGU1 101520Z 28015KT 18/09 A3016 RMK A01 T01770088  RH  058%=      5-min Rain = 0
KGU1 101521Z 27012KT 18/09 A3016 RMK A01 T01770088  RH  057%=      5-min Rain = 0
KGU1 101522Z 27012KT 18/09 A3016 RMK A01 T01770089  RH  058%=      5-min Rain = 0
KGU1 101523Z 28013KT 18/09 A3016 RMK A01 T01780088  RH  057%=      5-min Rain = 0
KGU1 101524Z 28015KT 18/09 A3016 RMK A01 T01780088  RH  057%=      5-min Rain = 0
KGU1 101525Z 28014KT 18/09 A3016 RMK A01 T01780089  RH  058%=      5-min Rain = 0
KGU1 101526Z 28017G23KT 18/09 A3016 RMK A01 T01780088  RH  057%=      5-min Rain = 0
KGU1 101527Z 28015KT 18/09 A3016 RMK A01 T01780087  RH  057%=      5-min Rain = 0
KGU1 101528Z 28012KT 18/09 A3017 RMK A01 T01780088  RH  057%=      5-min Rain = 0
KGU1 101529Z 28015KT 18/09 A3016 RMK A01 T01790088  RH  057%=      5-min Rain = 0
KGU1 101530Z 28013KT 18/09 A3017 RMK A01 T01790088  RH  057%=      5-min Rain = 0
KGU1 101531Z 27014KT 18/09 A3016 RMK A01 T01790088  RH  057%=      5-min Rain = 0
KGU1 101532Z 28015KT 18/09 A3017 RMK A01 T01790088  RH  057%=      5-min Rain = 0
KGU1 101533Z 28013KT 18/09 A3016 RMK A01 T01790088  RH  057%=      5-min Rain = 0
KGU1 101534Z 28013KT 18/09 A3016 RMK A01 T01790088  RH  057%=      5-min Rain = 0
KGU1 101535Z 27012KT 18/09 A3016 RMK A01 T01800087  RH  056%=      5-min Rain = 0
KGU1 101536Z 27015KT 18/09 A3016 RMK A01 T01810087  RH  056%=      5-min Rain = 0
KGU1 101537Z 28015KT 18/09 A3016 RMK A01 T01810086  RH  055%=      5-min Rain = 0
KGU1 101538Z 27014G19KT 18/09 A3016 RMK A01 T01810087  RH  056%=      5-min Rain = 0
KGU1 101539Z 27016KT 18/09 A3016 RMK A01 T01820086  RH  055%=      5-min Rain = 0
KGU1 101540Z 27015KT 18/09 A3016 RMK A01 T01820086  RH  055%=      5-min Rain = 0
KGU1 101541Z 27012KT 18/09 A3016 RMK A01 T01820086  RH  055%=      5-min Rain = 0
KGU1 101542Z 27015KT 18/09 A3016 RMK A01 T01820086  RH  055%=      5-min Rain = 0
KGU1 101543Z 27015KT 18/09 A3016 RMK A01 T01830086  RH  055%=      5-min Rain = 0
KGU1 101544Z 28016KT 18/09 A3017 RMK A01 T01830087  RH  055%=      5-min Rain = 0
KGU1 101545Z 28015KT 18/09 A3016 RMK A01 T01820087  RH  055%=      5-min Rain = 0
KGU1 101546Z 28018KT 18/09 A3017 RMK A01 T01820087  RH  056%=      5-min Rain = 0
KGU1 101547Z 28013G18KT 18/09 A3016 RMK A01 T01810088  RH  056%=      5-min Rain = 0
KGU1 101548Z 27016KT 18/09 A3016 RMK A01 T01820086  RH  055%=      5-min Rain = 0
KGU1 101549Z 28014KT 18/09 A3016 RMK A01 T01830086  RH  055%=      5-min Rain = 0
KGU1 101550Z 27012KT 18/09 A3016 RMK A01 T01830087  RH  055%=      5-min Rain = 0
KGU1 101551Z 27016KT 18/09 A3016 RMK A01 T01840086  RH  055%=      5-min Rain = 0
KGU1 101552Z 28013KT 18/09 A3016 RMK A01 T01830087  RH  055%=      5-min Rain = 0
KGU1 101553Z 28013KT 18/09 A3016 RMK A01 T01830088  RH  055%=      5-min Rain = 0
KGU1 101554Z 28015KT 18/09 A3016 RMK A01 T01830088  RH  055%=      5-min Rain = 0
KGU1 101555Z 27015KT 18/09 A3016 RMK A01 T01830087  RH  055%=      5-min Rain = 0
KGU1 101556Z 27015KT 18/09 A3016 RMK A01 T01840086  RH  054%=      5-min Rain = 0
KGU1 101557Z 28017KT 18/09 A3016 RMK A01 T01840087  RH  055%=      5-min Rain = 0
KGU1 101558Z 28016KT 18/09 A3016 RMK A01 T01840087  RH  055%=      5-min Rain = 0
KGU1 101559Z 28016G21KT 18/09 A3016 RMK A01 T01840087  RH  055%=      5-min Rain = 0
KGU1 101600Z 28014KT 18/09 A3016 RMK A01 T01830087  RH  055%=      5-min Rain = 0
KGU1 101601Z 27017KT 18/09 A3016 RMK A01 T01830087  RH  055%=      5-min Rain = 0
KGU1 101602Z 28016KT 18/09 A3016 RMK A01 T01830086  RH  055%=      5-min Rain = 0
KGU1 101603Z 28014KT 18/09 A3016 RMK A01 T01830087  RH  055%=      5-min Rain = 0
KGU1 101604Z 28016KT 18/09 A3016 RMK A01 T01830086  RH  055%=      5-min Rain = 0
KGU1 101605Z 27018G24KT 18/09 A3016 RMK A01 T01840086  RH  054%=      5-min Rain = 0
KGU1 101606Z 28015KT 18/09 A3016 RMK A01 T01840086  RH  054%=      5-min Rain = 0
KGU1 101607Z 27015G20KT 18/09 A3016 RMK A01 T01840086  RH  054%=      5-min Rain = 0
KGU1 101608Z 28015G20KT 19/09 A3016 RMK A01 T01850086  RH  054%=      5-min Rain = 0
KGU1 101609Z 27018G24KT 19/09 A3016 RMK A01 T01850086  RH  054%=      5-min Rain = 0
KGU1 101610Z 28017KT 19/09 A3016 RMK A01 T01850085  RH  054%=      5-min Rain = 0
KGU1 101611Z 28018KT 19/09 A3016 RMK A01 T01850085  RH  053%=      5-min Rain = 0
KGU1 101612Z 28019KT 19/09 A3016 RMK A01 T01850085  RH  054%=      5-min Rain = 0
KGU1 101613Z 28016KT 19/09 A3016 RMK A01 T01850086  RH  054%=      5-min Rain = 0
KGU1 101614Z 28015KT 19/09 A3016 RMK A01 T01850086  RH  054%=      5-min Rain = 0
KGU1 101615Z 28015G20KT 19/09 A3016 RMK A01 T01850087  RH  054%=      5-min Rain = 0
KGU1 101616Z 28016KT 19/09 A3016 RMK A01 T01860085  RH  054%=      5-min Rain = 0
KGU1 101617Z 27015KT 19/09 A3016 RMK A01 T01860086  RH  054%=      5-min Rain = 0
KGU1 101618Z 26018KT 19/09 A3016 RMK A01 T01870085  RH  053%=      5-min Rain = 0
KGU1 101619Z 27017G22KT 19/08 A3016 RMK A01 T01870084  RH  053%=      5-min Rain = 0
KGU1 101620Z 26015KT 19/09 A3016 RMK A01 T01870085  RH  053%=      5-min Rain = 0
KGU1 101621Z 27018KT 19/09 A3016 RMK A01 T01870085  RH  053%=      5-min Rain = 0
KGU1 101622Z 27017KT 19/09 A3016 RMK A01 T01870085  RH  053%=      5-min Rain = 0
KGU1 101623Z 27017KT 19/09 A3016 RMK A01 T01870086  RH  053%=      5-min Rain = 0
KGU1 101624Z 26015KT 19/09 A3016 RMK A01 T01870086  RH  053%=      5-min Rain = 0
KGU1 101625Z 28015KT 19/09 A3016 RMK A01 T01870087  RH  053%=      5-min Rain = 0
KGU1 101626Z 26016KT 19/09 A3016 RMK A01 T01870086  RH  053%=      5-min Rain = 0
KGU1 101627Z 27014KT 19/09 A3016 RMK A01 T01880085  RH  053%=      5-min Rain = 0
KGU1 101628Z 27016KT 19/09 A3016 RMK A01 T01880086  RH  053%=      5-min Rain = 0
KGU1 101629Z 26015KT 19/09 A3016 RMK A01 T01890086  RH  053%=      5-min Rain = 0
KGU1 101630Z 26019KT 19/09 A3016 RMK A01 T01890085  RH  052%=      5-min Rain = 0
KGU1 101631Z 25015G21KT 19/09 A3016 RMK A01 T01880085  RH  053%=      5-min Rain = 0
KGU1 101632Z 25016G21KT 19/09 A3016 RMK A01 T01880085  RH  053%=      5-min Rain = 0
KGU1 101633Z 27012KT 19/09 A3016 RMK A01 T01880086  RH  053%=      5-min Rain = 0
KGU1 101634Z 28015G20KT 19/09 A3016 RMK A01 T01880086  RH  053%=      5-min Rain = 0
KGU1 101635Z 27014G22KT 19/09 A3016 RMK A01 T01880087  RH  053%=      5-min Rain = 0
KGU1 101636Z 26018G25KT 19/09 A3016 RMK A01 T01890087  RH  053%=      5-min Rain = 0
KGU1 101637Z 26018G24KT 19/08 A3016 RMK A01 T01890084  RH  052%=      5-min Rain = 0
KGU1 101638Z 28016KT 19/09 A3016 RMK A01 T01880086  RH  053%=      5-min Rain = 0
KGU1 101639Z 28017KT 19/09 A3016 RMK A01 T01880087  RH  053%=      5-min Rain = 0
KGU1 101640Z 27017KT 19/09 A3016 RMK A01 T01880087  RH  053%=      5-min Rain = 0
KGU1 101641Z 27016KT 19/09 A3016 RMK A01 T01880087  RH  053%=      5-min Rain = 0
KGU1 101642Z 27015KT 19/09 A3016 RMK A01 T01880087  RH  053%=      5-min Rain = 0
KGU1 101643Z 26016G25KT 19/09 A3016 RMK A01 T01880087  RH  053%=      5-min Rain = 0
KGU1 101644Z 28014KT 19/09 A3016 RMK A01 T01880087  RH  053%=      5-min Rain = 0
KGU1 101645Z 28014KT 19/09 A3016 RMK A01 T01880087  RH  053%=      5-min Rain = 0
KGU1 101646Z 27015KT 19/09 A3016 RMK A01 T01880087  RH  053%=      5-min Rain = 0
KGU1 101647Z 26013KT 19/09 A3016 RMK A01 T01880088  RH  054%=      5-min Rain = 0
KGU1 101648Z 27013KT 19/09 A3016 RMK A01 T01890087  RH  053%=      5-min Rain = 0
KGU1 101649Z 27015G20KT 19/09 A3016 RMK A01 T01890088  RH  053%=      5-min Rain = 0
KGU1 101650Z 26015G20KT 19/09 A3016 RMK A01 T01890088  RH  053%=      5-min Rain = 0
KGU1 101651Z 26016G21KT 19/09 A3016 RMK A01 T01900085  RH  052%=      5-min Rain = 0
KGU1 101652Z 25016KT 19/09 A3016 RMK A01 T01900085  RH  052%=      5-min Rain = 0
KGU1 101653Z 26013KT 19/09 A3016 RMK A01 T01890085  RH  052%=      5-min Rain = 0
KGU1 101654Z 26013KT 19/09 A3016 RMK A01 T01890086  RH  053%=      5-min Rain = 0
KGU1 101655Z 26013G19KT 19/09 A3016 RMK A01 T01890087  RH  053%=      5-min Rain = 0
KGU1 101656Z 25016KT 19/09 A3016 RMK A01 T01890086  RH  052%=      5-min Rain = 0
KGU1 101657Z 28014KT 19/09 A3016 RMK A01 T01900087  RH  053%=      5-min Rain = 0
KGU1 101658Z 27011KT 19/09 A3016 RMK A01 T01910087  RH  053%=      5-min Rain = 0
KGU1 101659Z 27012KT 19/09 A3016 RMK A01 T01910088  RH  052%=      5-min Rain = 0
KGU1 101700Z 27011KT 19/09 A3016 RMK A01 T01910087  RH  052%=      5-min Rain = 0
KGU1 101701Z 27010KT 19/09 A3016 RMK A01 T01920088  RH  053%=      5-min Rain = 0
KGU1 101702Z 27013KT 19/09 A3016 RMK A01 T01930088  RH  052%=      5-min Rain = 0
KGU1 101703Z 25014G19KT 19/09 A3016 RMK A01 T01930085  RH  051%=      5-min Rain = 0
KGU1 101704Z 25014KT 19/09 A3016 RMK A01 T01930085  RH  051%=      5-min Rain = 0
KGU1 101705Z 25014KT 19/08 A3016 RMK A01 T01920084  RH  051%=      5-min Rain = 0
KGU1 101706Z 25015KT 19/09 A3016 RMK A01 T01910085  RH  052%=      5-min Rain = 0
KGU1 101707Z 27014G21KT 19/09 A3016 RMK A01 T01910086  RH  052%=      5-min Rain = 0
KGU1 101708Z 26015KT 19/09 A3016 RMK A01 T01910086  RH  052%=      5-min Rain = 0
KGU1 101709Z 26015KT 19/09 A3016 RMK A01 T01910086  RH  052%=      5-min Rain = 0
KGU1 101710Z 27012KT 19/09 A3016 RMK A01 T01910087  RH  052%=      5-min Rain = 0
KGU1 101711Z 27011KT 19/09 A3016 RMK A01 T01920087  RH  052%=      5-min Rain = 0
KGU1 101712Z 27012KT 19/09 A3016 RMK A01 T01920087  RH  052%=      5-min Rain = 0
KGU1 101713Z 26012KT 19/09 A3016 RMK A01 T01930089  RH  052%=      5-min Rain = 0
KGU1 101714Z 26012KT 19/09 A3016 RMK A01 T01930088  RH  052%=      5-min Rain = 0
KGU1 101715Z 27012KT 19/09 A3016 RMK A01 T01930088  RH  052%=      5-min Rain = 0
KGU1 101716Z 26011KT 19/09 A3016 RMK A01 T01930088  RH  052%=      5-min Rain = 0
KGU1 101717Z 26011KT 19/09 A3016 RMK A01 T01930086  RH  051%=      5-min Rain = 0
KGU1 101718Z 27014KT 19/09 A3016 RMK A01 T01930087  RH  052%=      5-min Rain = 0
KGU1 101719Z 27014KT 19/09 A3016 RMK A01 T01930087  RH  052%=      5-min Rain = 0
KGU1 101720Z 26015G22KT 19/09 A3015 RMK A01 T01920086  RH  052%=      5-min Rain = 0
KGU1 101721Z 23011G17KT 19/09 A3015 RMK A01 T01910085  RH  052%=      5-min Rain = 0
KGU1 101722Z 25011G16KT 19/09 A3015 RMK A01 T01910085  RH  052%=      5-min Rain = 0
KGU1 101723Z 23011KT 19/09 A3015 RMK A01 T01910085  RH  052%=      5-min Rain = 0
KGU1 101724Z 24013G21KT 19/09 A3015 RMK A01 T01910085  RH  052%=      5-min Rain = 0
KGU1 101725Z 24012KT 19/09 A3015 RMK A01 T01900085  RH  052%=      5-min Rain = 0
KGU1 101726Z 25016KT 19/09 A3015 RMK A01 T01890085  RH  052%=      5-min Rain = 0
KGU1 101727Z 23014G19KT 19/09 A3015 RMK A01 T01890085  RH  052%=      5-min Rain = 0
KGU1 101728Z 22012KT 19/09 A3015 RMK A01 T01890086  RH  052%=      5-min Rain = 0
KGU1 101729Z 24011G16KT 19/09 A3015 RMK A01 T01900086  RH  052%=      5-min Rain = 0
KGU1 101730Z 24014KT 19/09 A3015 RMK A01 T01900086  RH  052%=      5-min Rain = 0
KGU1 101731Z 23007KT 19/09 A3015 RMK A01 T01890085  RH  052%=      5-min Rain = 0
KGU1 101732Z 23009G14KT 19/09 A3015 RMK A01 T01890086  RH  053%=      5-min Rain = 0
KGU1 101733Z 28012KT 19/09 A3015 RMK A01 T01890087  RH  053%=      5-min Rain = 0
KGU1 101734Z 22012KT 19/09 A3015 RMK A01 T01890087  RH  053%=      5-min Rain = 0
KGU1 101735Z 24010KT 19/09 A3015 RMK A01 T01890087  RH  053%=      5-min Rain = 0
KGU1 101736Z 23012KT 19/09 A3015 RMK A01 T01900086  RH  052%=      5-min Rain = 0
KGU1 101737Z 24012KT 19/09 A3015 RMK A01 T01900085  RH  052%=      5-min Rain = 0
KGU1 101738Z 25013KT 19/09 A3015 RMK A01 T01890086  RH  052%=      5-min Rain = 0
KGU1 101739Z 25014KT 19/09 A3015 RMK A01 T01890086  RH  053%=      5-min Rain = 0
KGU1 101740Z 24011G16KT 19/09 A3015 RMK A01 T01890086  RH  053%=      5-min Rain = 0
KGU1 101741Z 22010KT 19/09 A3015 RMK A01 T01890088  RH  053%=      5-min Rain = 0
KGU1 101742Z 23011KT 19/09 A3015 RMK A01 T01890088  RH  053%=      5-min Rain = 0
KGU1 101743Z 24011KT 19/09 A3015 RMK A01 T01890088  RH  054%=      5-min Rain = 0
KGU1 101744Z 26010KT 19/09 A3015 RMK A01 T01880087  RH  053%=      5-min Rain = 0
KGU1 101745Z 26011KT 19/09 A3015 RMK A01 T01890087  RH  053%=      5-min Rain = 0
KGU1 101746Z 25011KT 19/09 A3015 RMK A01 T01890086  RH  053%=      5-min Rain = 0
KGU1 101747Z 25011KT 19/09 A3015 RMK A01 T01890086  RH  053%=      5-min Rain = 0
KGU1 101748Z 24010KT 19/09 A3015 RMK A01 T01900087  RH  053%=      5-min Rain = 0
KGU1 101749Z 25010KT 19/09 A3015 RMK A01 T01900088  RH  053%=      5-min Rain = 0
KGU1 101750Z 28014G22KT 19/09 A3015 RMK A01 T01910086  RH  052%=      5-min Rain = 0
KGU1 101751Z 25010KT 19/09 A3015 RMK A01 T01910086  RH  052%=      5-min Rain = 0
KGU1 101752Z 25011G16KT 19/09 A3015 RMK A01 T01910087  RH  053%=      5-min Rain = 0
KGU1 101753Z 23008KT 19/09 A3015 RMK A01 T01910087  RH  052%=      5-min Rain = 0
KGU1 101754Z 23010G15KT 19/09 A3015 RMK A01 T01910088  RH  052%=      5-min Rain = 0
KGU1 101755Z 22011G16KT 19/09 A3015 RMK A01 T01910086  RH  052%=      5-min Rain = 0
KGU1 101756Z 23016G21KT 19/09 A3015 RMK A01 T01900087  RH  053%=      5-min Rain = 0
KGU1 101757Z 26016G22KT 19/09 A3015 RMK A01 T01900086  RH  053%=      5-min Rain = 0
KGU1 101758Z 27013KT 19/09 A3015 RMK A01 T01890088  RH  053%=      5-min Rain = 0
KGU1 101759Z 25010G15KT 19/09 A3015 RMK A01 T01890088  RH  053%=      5-min Rain = 0
KGU1 101800Z 22009KT 19/09 A3015 RMK A01 T01900091  RH  054%=      5-min Rain = 0
KGU1 101801Z 24009G14KT 19/09 A3015 RMK A01 T01910091  RH  054%=      5-min Rain = 0
KGU1 101802Z 25011G22KT 19/09 A3015 RMK A01 T01900087  RH  052%=      5-min Rain = 0
KGU1 101803Z 22013G22KT 19/09 A3014 RMK A01 T01900086  RH  052%=      5-min Rain = 0
KGU1 101804Z 22012G19KT 19/09 A3015 RMK A01 T01900087  RH  053%=      5-min Rain = 0
KGU1 101805Z 23016KT 19/09 A3015 RMK A01 T01900087  RH  053%=      5-min Rain = 0
KGU1 101806Z 25013G22KT 19/09 A3015 RMK A01 T01890087  RH  053%=      5-min Rain = 0
KGU1 101807Z 23010G17KT 19/09 A3015 RMK A01 T01890087  RH  053%=      5-min Rain = 0
KGU1 101808Z 22012KT 19/09 A3015 RMK A01 T01890087  RH  053%=      5-min Rain = 0
KGU1 101809Z 21010G16KT 19/09 A3015 RMK A01 T01900087  RH  053%=      5-min Rain = 0
KGU1 101810Z 22009KT 19/09 A3015 RMK A01 T01890090  RH  054%=      5-min Rain = 0
KGU1 101811Z 21013KT 19/09 A3014 RMK A01 T01890090  RH  054%=      5-min Rain = 0
KGU1 101812Z 22013G23KT 19/09 A3014 RMK A01 T01870090  RH  055%=      5-min Rain = 0
KGU1 101813Z 23014KT 19/09 A3014 RMK A01 T01860089  RH  055%=      5-min Rain = 0
KGU1 101814Z 23012G17KT 19/09 A3014 RMK A01 T01860088  RH  054%=      5-min Rain = 0
KGU1 101815Z 22011KT 19/09 A3014 RMK A01 T01860088  RH  054%=      5-min Rain = 0
KGU1 101816Z 24011KT 19/09 A3014 RMK A01 T01870089  RH  054%=      5-min Rain = 0
KGU1 101817Z 24010G16KT 19/09 A3014 RMK A01 T01880089  RH  054%=      5-min Rain = 0
KGU1 101818Z 25016KT 19/09 A3014 RMK A01 T01880090  RH  054%=      5-min Rain = 0
KGU1 101819Z 23015KT 19/09 A3013 RMK A01 T01870088  RH  054%=      5-min Rain = 0
KGU1 101820Z 22009KT 19/09 A3013 RMK A01 T01870088  RH  054%=      5-min Rain = 0
KGU1 101821Z 24010KT 19/09 A3013 RMK A01 T01880089  RH  054%=      5-min Rain = 0
KGU1 101822Z 23009KT 19/09 A3013 RMK A01 T01890088  RH  053%=      5-min Rain = 0
KGU1 101823Z 25006KT 19/09 A3013 RMK A01 T01900089  RH  053%=      5-min Rain = 0
KGU1 101824Z 28009KT 19/09 A3013 RMK A01 T01910090  RH  054%=      5-min Rain = 0
KGU1 101825Z 28010KT 19/09 A3013 RMK A01 T01920091  RH  053%=      5-min Rain = 0
KGU1 101826Z 25008KT 19/09 A3013 RMK A01 T01920090  RH  053%=      5-min Rain = 0
KGU1 101827Z 25004KT 19/09 A3013 RMK A01 T01910089  RH  053%=      5-min Rain = 0
KGU1 101828Z 21008G13KT 19/09 A3013 RMK A01 T01920089  RH  053%=      5-min Rain = 0
KGU1 101829Z 22015G20KT 19/09 A3012 RMK A01 T01940087  RH  051%=      5-min Rain = 0
KGU1 101830Z 23013G18KT 19/09 A3012 RMK A01 T01940088  RH  052%=      5-min Rain = 0
KGU1 101831Z 25008KT 19/09 A3013 RMK A01 T01930088  RH  052%=      5-min Rain = 0
KGU1 101832Z 23014G20KT 19/09 A3013 RMK A01 T01930089  RH  052%=      5-min Rain = 0
KGU1 101833Z 22009KT 19/09 A3013 RMK A01 T01930089  RH  052%=      5-min Rain = 0
KGU1 101834Z 20013KT 19/09 A3012 RMK A01 T01920090  RH  053%=      5-min Rain = 0
KGU1 101835Z 20014G22KT 19/09 A3012 RMK A01 T01920089  RH  053%=      5-min Rain = 0
KGU1 101836Z 23010G16KT 19/09 A3012 RMK A01 T01930087  RH  052%=      5-min Rain = 0
KGU1 101837Z 20012KT 19/09 A3012 RMK A01 T01930087  RH  052%=      5-min Rain = 0
KGU1 101838Z 21013G18KT 19/09 A3012 RMK A01 T01940089  RH  052%=      5-min Rain = 0
KGU1 101839Z 20018G23KT 19/09 A3011 RMK A01 T01940089  RH  052%=      5-min Rain = 0
KGU1 101840Z 20012G19KT 19/09 A3012 RMK A01 T01930087  RH  052%=      5-min Rain = 0
KGU1 101841Z 22011KT 19/09 A3012 RMK A01 T01930087  RH  052%=      5-min Rain = 0
KGU1 101842Z 22009G15KT 19/09 A3012 RMK A01 T01930088  RH  052%=      5-min Rain = 0
KGU1 101843Z 22010G15KT 19/09 A3012 RMK A01 T01930088  RH  052%=      5-min Rain = 0
KGU1 101844Z 21012G22KT 19/09 A3012 RMK A01 T01930088  RH  052%=      5-min Rain = 0
KGU1 101845Z 21012G20KT 19/09 A3012 RMK A01 T01920088  RH  052%=      5-min Rain = 0
KGU1 101846Z 21010KT 19/09 A3012 RMK A01 T01920088  RH  053%=      5-min Rain = 0
KGU1 101847Z 21014G24KT 19/09 A3012 RMK A01 T01910090  RH  054%=      5-min Rain = 0
KGU1 101848Z 23012G18KT 19/09 A3011 RMK A01 T01900089  RH  053%=      5-min Rain = 0
KGU1 101849Z 24014G23KT 19/09 A3012 RMK A01 T01900089  RH  053%=      5-min Rain = 0
KGU1 101850Z 24014KT 19/09 A3012 RMK A01 T01890089  RH  054%=      5-min Rain = 0
KGU1 101851Z 22013KT 19/09 A3012 RMK A01 T01880089  RH  054%=      5-min Rain = 0
KGU1 101852Z 22012G17KT 19/09 A3012 RMK A01 T01890089  RH  054%=      5-min Rain = 0
KGU1 101853Z 24018G23KT 19/09 A3011 RMK A01 T01900088  RH  053%=      5-min Rain = 0
KGU1 101854Z 23012G18KT 19/09 A3012 RMK A01 T01890088  RH  053%=      5-min Rain = 0
KGU1 101855Z 23011KT 19/09 A3012 RMK A01 T01890090  RH  054%=      5-min Rain = 0
KGU1 101856Z 22010KT 19/09 A3012 RMK A01 T01880091  RH  055%=      5-min Rain = 0
KGU1 101857Z 21011KT 19/09 A3011 RMK A01 T01900091  RH  054%=      5-min Rain = 0
KGU1 101858Z 21012KT 19/09 A3011 RMK A01 T01930092  RH  054%=      5-min Rain = 0
KGU1 101859Z 22012KT 20/09 A3011 RMK A01 T01960091  RH  052%=      5-min Rain = 0
KGU1 101900Z 20012G18KT 20/09 A3011 RMK A01 T01980091  RH  052%=      5-min Rain = 0
KGU1 101901Z 21016G25KT 20/09 A3011 RMK A01 T01990091  RH  051%=      5-min Rain = 0
KGU1 101902Z 21008KT 20/09 A3011 RMK A01 T01980090  RH  051%=      5-min Rain = 0
KGU1 101903Z 22014G20KT 20/09 A3011 RMK A01 T01990091  RH  051%=      5-min Rain = 0
KGU1 101904Z 24017G26KT 20/09 A3011 RMK A01 T02000088  RH  050%=      5-min Rain = 0
KGU1 101905Z 21010G20KT 20/09 A3011 RMK A01 T02000089  RH  050%=      5-min Rain = 0
KGU1 101906Z 20014G20KT 20/09 A3011 RMK A01 T02000093  RH  052%=      5-min Rain = 0
KGU1 101907Z 22014G21KT 20/09 A301 RMK A01 T01990093  RH  052%=      5-min Rain = 0
KGU1 101908Z 22014KT 20/09 A301 RMK A01 T02000090  RH  050%=      5-min Rain = 0
KGU1 101909Z 24012KT 20/09 A301 RMK A01 T02010089  RH  050%=      5-min Rain = 0
KGU1 101910Z 21014G21KT 20/09 A301 RMK A01 T02030090  RH  050%=      5-min Rain = 0
KGU1 101911Z 23013G19KT 20/09 A301 RMK A01 T02010088  RH  050%=      5-min Rain = 0
KGU1 101912Z 23011KT 20/09 A301 RMK A01 T02000089  RH  050%=      5-min Rain = 0
KGU1 101913Z 23010G17KT 20/09 A301 RMK A01 T02000090  RH  051%=      5-min Rain = 0
KGU1 101914Z 23014G20KT 20/09 A301 RMK A01 T02000089  RH  050%=      5-min Rain = 0
KGU1 101915Z 27010G16KT 20/09 A301 RMK A01 T01990088  RH  050%=      5-min Rain = 0
KGU1 101916Z 22017G22KT 20/09 A3009 RMK A01 T01990089  RH  051%=      5-min Rain = 0
KGU1 101917Z 23013G22KT 20/09 A301 RMK A01 T01990089  RH  050%=      5-min Rain = 0
KGU1 101918Z 29011KT 20/09 A301 RMK A01 T01980089  RH  051%=      5-min Rain = 0
KGU1 101919Z 27009KT 20/09 A301 RMK A01 T02000091  RH  051%=      5-min Rain = 0
KGU1 101920Z 22010KT 21/09 A301 RMK A01 T02050092  RH  050%=      5-min Rain = 0
KGU1 101921Z 22012G20KT 21/09 A3009 RMK A01 T02080092  RH  049%=      5-min Rain = 0
KGU1 101922Z 25010G18KT 21/09 A3009 RMK A01 T02060089  RH  048%=      5-min Rain = 0
KGU1 101923Z 23012G18KT 20/09 A3009 RMK A01 T02040090  RH  049%=      5-min Rain = 0
KGU1 101924Z 25011G17KT 20/09 A3009 RMK A01 T02040089  RH  049%=      5-min Rain = 0
KGU1 101925Z 25013G22KT 20/09 A3009 RMK A01 T02030087  RH  049%=      5-min Rain = 0
KGU1 101926Z 25012G18KT 20/09 A3009 RMK A01 T02010089  RH  050%=      5-min Rain = 0
KGU1 101927Z 22011KT 20/09 A3009 RMK A01 T02020090  RH  050%=      5-min Rain = 0
KGU1 101928Z 21011G22KT 20/09 A3009 RMK A01 T02030090  RH  050%=      5-min Rain = 0
KGU1 101929Z 21010G18KT 20/09 A3009 RMK A01 T02020088  RH  049%=      5-min Rain = 0
KGU1 101930Z 22011G16KT 20/09 A3009 RMK A01 T02000089  RH  050%=      5-min Rain = 0
KGU1 101931Z 23008G18KT 20/09 A3009 RMK A01 T02010090  RH  050%=      5-min Rain = 0
KGU1 101932Z 22013KT 20/09 A3009 RMK A01 T02020090  RH  050%=      5-min Rain = 0
KGU1 101933Z 22013G20KT 20/09 A3009 RMK A01 T02020090  RH  050%=      5-min Rain = 0
KGU1 101934Z 22013G21KT 20/09 A3009 RMK A01 T02020091  RH  050%=      5-min Rain = 0
KGU1 101935Z 22014KT 20/09 A3009 RMK A01 T02030093  RH  051%=      5-min Rain = 0
KGU1 101936Z 22017G27KT 20/09 A3008 RMK A01 T02030091  RH  050%=      5-min Rain = 0
KGU1 101937Z 23011G20KT 20/09 A3008 RMK A01 T02020091  RH  050%=      5-min Rain = 0
KGU1 101938Z 23016G23KT 20/09 A3008 RMK A01 T02040092  RH  050%=      5-min Rain = 0
KGU1 101939Z 24019G26KT 20/09 A3009 RMK A01 T02030091  RH  050%=      5-min Rain = 0
KGU1 101940Z 22012G17KT 20/09 A3008 RMK A01 T02010090  RH  050%=      5-min Rain = 0
KGU1 101941Z 24014KT 20/09 A3008 RMK A01 T02020091  RH  050%=      5-min Rain = 0
KGU1 101942Z 26012G17KT 20/09 A3009 RMK A01 T02000091  RH  051%=      5-min Rain = 0
KGU1 101943Z 24012KT 20/09 A3009 RMK A01 T02010092  RH  051%=      5-min Rain = 0
KGU1 101944Z 24012G18KT 20/09 A3008 RMK A01 T02030092  RH  050%=      5-min Rain = 0
KGU1 101945Z 25012KT 20/09 A3009 RMK A01 T02020091  RH  050%=      5-min Rain = 0
KGU1 101946Z 24013G20KT 20/09 A3009 RMK A01 T02010092  RH  051%=      5-min Rain = 0
KGU1 101947Z 27011G16KT 20/09 A3009 RMK A01 T02000092  RH  051%=      5-min Rain = 0
KGU1 101948Z 28012KT 20/09 A3008 RMK A01 T02010093  RH  052%=      5-min Rain = 0
KGU1 101949Z 25009G15KT 20/10 A3009 RMK A01 T02040095  RH  051%=      5-min Rain = 0
KGU1 101950Z 27010G18KT 21/09 A3009 RMK A01 T02060093  RH  050%=      5-min Rain = 0
KGU1 101951Z 25013G20KT 21/10 A3009 RMK A01 T02060095  RH  051%=      5-min Rain = 0
KGU1 101952Z 27008KT 21/09 A3008 RMK A01 T02060094  RH  050%=      5-min Rain = 0
KGU1 101953Z 25010KT 21/10 A3009 RMK A01 T02080097  RH  050%=      5-min Rain = 0
KGU1 101954Z 23011KT 21/09 A3008 RMK A01 T02100094  RH  049%=      5-min Rain = 0
KGU1 101955Z 23011KT 21/09 A3008 RMK A01 T02100094  RH  049%=      5-min Rain = 0
KGU1 101956Z 24012G20KT 21/09 A3008 RMK A01 T02090094  RH  049%=      5-min Rain = 0
KGU1 101957Z 22011G21KT 21/09 A3008 RMK A01 T02080094  RH  050%=      5-min Rain = 0
KGU1 101958Z 21015G21KT 21/09 A3008 RMK A01 T02070094  RH  050%=      5-min Rain = 0
KGU1 101959Z 22014G21KT 21/10 A3008 RMK A01 T02070095  RH  050%=      5-min Rain = 0
KGU1 102000Z 21016G26KT 21/10 A3008 RMK A01 T02070095  RH  050%=      5-min Rain = 0
KGU1 102001Z 22015G28KT 20/09 A3008 RMK A01 T02040093  RH  050%=      5-min Rain = 0
KGU1 102002Z 22012G19KT 20/09 A3008 RMK A01 T02020094  RH  051%=      5-min Rain = 0
KGU1 102003Z 24008G14KT 20/10 A3008 RMK A01 T02020095  RH  052%=      5-min Rain = 0
KGU1 102004Z 21015G21KT 20/10 A3008 RMK A01 T02030096  RH  052%=      5-min Rain = 0
KGU1 102005Z 22012G17KT 20/10 A3008 RMK A01 T02030096  RH  052%=      5-min Rain = 0
KGU1 102006Z 21016KT 21/10 A3008 RMK A01 T02050097  RH  051%=      5-min Rain = 0
KGU1 102007Z 23014G20KT 20/10 A3008 RMK A01 T02040097  RH  052%=      5-min Rain = 0
KGU1 102008Z 22017G22KT 21/10 A3008 RMK A01 T02050097  RH  052%=      5-min Rain = 0
KGU1 102009Z 25021G28KT 21/10 A3008 RMK A01 T02050095  RH  051%=      5-min Rain = 0
KGU1 102010Z 24015G22KT 20/10 A3008 RMK A01 T02030096  RH  052%=      5-min Rain = 0
KGU1 102011Z 24017G30KT 20/10 A3008 RMK A01 T02020095  RH  052%=      5-min Rain = 0
KGU1 102012Z 25015KT 20/10 A3008 RMK A01 T02010095  RH  052%=      5-min Rain = 0
KGU1 102013Z 23013G18KT 20/10 A3008 RMK A01 T02000097  RH  053%=      5-min Rain = 0
KGU1 102014Z 22015G23KT 20/10 A3008 RMK A01 T02030097  RH  052%=      5-min Rain = 0
KGU1 102015Z 21019G25KT 20/10 A3008 RMK A01 T02030097  RH  052%=      5-min Rain = 0
KGU1 102016Z 22020KT 20/10 A3008 RMK A01 T02040097  RH  052%=      5-min Rain = 0
KGU1 102017Z 21014G25KT 20/10 A3008 RMK A01 T02030097  RH  052%=      5-min Rain = 0
KGU1 102018Z 22012G17KT 20/10 A3008 RMK A01 T02020097  RH  052%=      5-min Rain = 0
KGU1 102019Z 22018G23KT 20/10 A3008 RMK A01 T02020097  RH  052%=      5-min Rain = 0
KGU1 102020Z 23017G23KT 20/10 A3008 RMK A01 T02030096  RH  052%=      5-min Rain = 0
KGU1 102021Z 25017G23KT 20/10 A3008 RMK A01 T02020096  RH  052%=      5-min Rain = 0
KGU1 102022Z 23015G26KT 20/10 A3008 RMK A01 T02020097  RH  052%=      5-min Rain = 0
KGU1 102023Z 23017G24KT 20/10 A3008 RMK A01 T02030097  RH  052%=      5-min Rain = 0
KGU1 102024Z 22019G24KT 20/10 A3008 RMK A01 T02040097  RH  052%=      5-min Rain = 0
KGU1 102025Z 25012KT 20/10 A3008 RMK A01 T02040097  RH  052%=      5-min Rain = 0
KGU1 102026Z 22013G18KT 20/10 A3008 RMK A01 T02030097  RH  052%=      5-min Rain = 0
KGU1 102027Z 22011KT 20/10 A3007 RMK A01 T02030098  RH  052%=      5-min Rain = 0
KGU1 102028Z 22019G26KT 20/10 A3007 RMK A01 T02030098  RH  052%=      5-min Rain = 0
KGU1 102029Z 25017G22KT 20/09 A3007 RMK A01 T02030094  RH  051%=      5-min Rain = 0
KGU1 102030Z 21015G22KT 20/09 A3007 RMK A01 T02010094  RH  052%=      5-min Rain = 0
KGU1 102031Z 22017G24KT 20/10 A3007 RMK A01 T02020096  RH  052%=      5-min Rain = 0
KGU1 102032Z 23014KT 20/10 A3007 RMK A01 T02030097  RH  052%=      5-min Rain = 0
KGU1 102033Z 22016G23KT 20/10 A3007 RMK A01 T02030098  RH  052%=      5-min Rain = 0
KGU1 102034Z 22017G23KT 21/10 A3007 RMK A01 T02050097  RH  052%=      5-min Rain = 0
KGU1 102035Z 21016G26KT 20/09 A3007 RMK A01 T02040094  RH  051%=      5-min Rain = 0
KGU1 102036Z 22015KT 20/10 A3007 RMK A01 T02020095  RH  052%=      5-min Rain = 0
KGU1 102037Z 23016G22KT 20/10 A3007 RMK A01 T02030096  RH  052%=      5-min Rain = 0
KGU1 102038Z 21023G36KT 20/10 A3006 RMK A01 T02040096  RH  051%=      5-min Rain = 0
KGU1 102039Z 23019G24KT 20/09 A3007 RMK A01 T02040093  RH  050%=      5-min Rain = 0
KGU1 102040Z 24015G25KT 20/09 A3007 RMK A01 T02030092  RH  050%=      5-min Rain = 0
KGU1 102041Z 23015G22KT 20/09 A3007 RMK A01 T02020093  RH  051%=      5-min Rain = 0
KGU1 102042Z 23021G29KT 20/09 A3007 RMK A01 T02030094  RH  051%=      5-min Rain = 0
KGU1 102043Z 26018G25KT 20/09 A3007 RMK A01 T02040092  RH  050%=      5-min Rain = 0
KGU1 102044Z 26017G24KT 20/09 A3007 RMK A01 T02030092  RH  050%=      5-min Rain = 0
KGU1 102045Z 28012G17KT 20/09 A3007 RMK A01 T02030093  RH  051%=      5-min Rain = 0
KGU1 102046Z 28012G19KT 20/09 A3007 RMK A01 T02040094  RH  051%=      5-min Rain = 0
KGU1 102047Z 23010G20KT 21/10 A3007 RMK A01 T02060096  RH  051%=      5-min Rain = 0
KGU1 102048Z 22014KT 21/10 A3007 RMK A01 T02080095  RH  050%=      5-min Rain = 0
KGU1 102049Z 23013G19KT 21/10 A3007 RMK A01 T02080095  RH  050%=      5-min Rain = 0
KGU1 102050Z 23015G20KT 21/09 A3007 RMK A01 T02070094  RH  050%=      5-min Rain = 0
KGU1 102051Z 21015G23KT 21/09 A3006 RMK A01 T02050093  RH  050%=      5-min Rain = 0
KGU1 102052Z 21021G27KT 21/09 A3006 RMK A01 T02060093  RH  050%=      5-min Rain = 0
KGU1 102053Z 22014G25KT 20/09 A3007 RMK A01 T02040093  RH  050%=      5-min Rain = 0
KGU1 102054Z 21014G22KT 20/09 A3007 RMK A01 T02030094  RH  051%=      5-min Rain = 0
KGU1 102055Z 21015G22KT 20/09 A3007 RMK A01 T02040094  RH  051%=      5-min Rain = 0
KGU1 102056Z 21018G30KT 20/09 A3007 RMK A01 T02030094  RH  051%=      5-min Rain = 0
KGU1 102057Z 20019G24KT 20/09 A3006 RMK A01 T02020094  RH  052%=      5-min Rain = 0
KGU1 102058Z 21018G25KT 20/09 A3006 RMK A01 T02010094  RH  052%=      5-min Rain = 0
KGU1 102059Z 22017G34KT 20/09 A3007 RMK A01 T02010094  RH  052%=      5-min Rain = 0
KGU1 102100Z 23016G22KT 20/09 A3007 RMK A01 T02010093  RH  051%=      5-min Rain = 0
KGU1 102101Z 25009G17KT 20/09 A3007 RMK A01 T02020091  RH  051%=      5-min Rain = 0
KGU1 102102Z 23010KT 20/09 A3007 RMK A01 T02030094  RH  051%=      5-min Rain = 0
KGU1 102103Z 23014G22KT 20/09 A3006 RMK A01 T02040094  RH  051%=      5-min Rain = 0
KGU1 102104Z 20020G28KT 20/09 A3006 RMK A01 T02040093  RH  051%=      5-min Rain = 0
KGU1 102105Z 22018G28KT 20/09 A3006 RMK A01 T02030093  RH  051%=      5-min Rain = 0
KGU1 102106Z 23014G22KT 20/09 A3007 RMK A01 T02020093  RH  051%=      5-min Rain = 0
KGU1 102107Z 22019G27KT 20/09 A3006 RMK A01 T02020093  RH  051%=      5-min Rain = 0
KGU1 102108Z 23013G18KT 20/09 A3007 RMK A01 T02030094  RH  051%=      5-min Rain = 0
KGU1 102109Z 23014G24KT 20/09 A3007 RMK A01 T02040093  RH  051%=      5-min Rain = 0
KGU1 102110Z 22014G20KT 20/09 A3007 RMK A01 T02040094  RH  051%=      5-min Rain = 0
KGU1 102111Z 23011G16KT 21/09 A3007 RMK A01 T02050093  RH  050%=      5-min Rain = 0
KGU1 102112Z 23008G13KT 21/09 A3006 RMK A01 T02050093  RH  050%=      5-min Rain = 0
KGU1 102113Z 24012G20KT 21/09 A3006 RMK A01 T02050093  RH  050%=      5-min Rain = 0
KGU1 102114Z 24012G20KT 20/09 A3007 RMK A01 T02040093  RH  050%=      5-min Rain = 0
KGU1 102115Z 23006G13KT 20/09 A3007 RMK A01 T02030093  RH  051%=      5-min Rain = 0
KGU1 102116Z 21014G22KT 20/10 A3006 RMK A01 T02030095  RH  051%=      5-min Rain = 0
KGU1 102117Z 22013KT 20/09 A3006 RMK A01 T02030094  RH  051%=      5-min Rain = 0
KGU1 102118Z 22012G17KT 20/10 A3006 RMK A01 T02030095  RH  052%=      5-min Rain = 0
KGU1 102119Z 22017G29KT 20/10 A3006 RMK A01 T02040095  RH  051%=      5-min Rain = 0
KGU1 102120Z 21013KT 20/09 A3006 RMK A01 T02040094  RH  051%=      5-min Rain = 0
KGU1 102121Z 23012G18KT 20/10 A3006 RMK A01 T02030095  RH  051%=      5-min Rain = 0
KGU1 102122Z 22011G17KT 20/10 A3007 RMK A01 T02030095  RH  051%=      5-min Rain = 0
KGU1 102123Z 21017G27KT 20/10 A3006 RMK A01 T02040095  RH  051%=      5-min Rain = 0
KGU1 102124Z 20015KT 21/10 A3006 RMK A01 T02050096  RH  051%=      5-min Rain = 0
KGU1 102125Z 21013G18KT 21/10 A3007 RMK A01 T02060095  RH  051%=      5-min Rain = 0
KGU1 102126Z 21015G21KT 21/10 A3006 RMK A01 T02060095  RH  051%=      5-min Rain = 0
KGU1 102127Z 21012G17KT 21/10 A3006 RMK A01 T02060095  RH  051%=      5-min Rain = 0
KGU1 102128Z 23009G14KT 21/10 A3007 RMK A01 T02060096  RH  051%=      5-min Rain = 0
KGU1 102129Z 22011G19KT 21/10 A3006 RMK A01 T02080096  RH  050%=      5-min Rain = 0
KGU1 102130Z 21014KT 21/10 A3006 RMK A01 T02070095  RH  050%=      5-min Rain = 0
KGU1 102131Z 24012KT 21/10 A3006 RMK A01 T02060095  RH  051%=      5-min Rain = 0
KGU1 102132Z 25017G23KT 21/10 A3006 RMK A01 T02060096  RH  051%=      5-min Rain = 0
KGU1 102133Z 25016G23KT 21/09 A3006 RMK A01 T02060094  RH  050%=      5-min Rain = 0
KGU1 102134Z 22014G19KT 21/09 A3006 RMK A01 T02050093  RH  050%=      5-min Rain = 0
KGU1 102135Z 23016KT 21/09 A3007 RMK A01 T02050094  RH  050%=      5-min Rain = 0
KGU1 102136Z 24009G15KT 20/09 A3007 RMK A01 T02040094  RH  051%=      5-min Rain = 0
KGU1 102137Z 22007G12KT 20/10 A3007 RMK A01 T02040095  RH  051%=      5-min Rain = 0
KGU1 102138Z 25009KT 20/10 A3006 RMK A01 T02040095  RH  051%=      5-min Rain = 0
KGU1 102139Z 23011KT 21/09 A3006 RMK A01 T02050094  RH  051%=      5-min Rain = 0
KGU1 102140Z 26014KT 21/10 A3006 RMK A01 T02050095  RH  051%=      5-min Rain = 0
KGU1 102141Z 25011KT 21/10 A3006 RMK A01 T02050096  RH  051%=      5-min Rain = 0
KGU1 102142Z 22010KT 21/09 A3006 RMK A01 T02060094  RH  050%=      5-min Rain = 0
KGU1 102143Z 21014KT 21/09 A3006 RMK A01 T02070094  RH  050%=      5-min Rain = 0
KGU1 102144Z 21009G14KT 21/09 A3006 RMK A01 T02060093  RH  050%=      5-min Rain = 0
KGU1 102145Z 21009KT 21/09 A3006 RMK A01 T02060094  RH  050%=      5-min Rain = 0
KGU1 102146Z 21012KT 21/10 A3006 RMK A01 T02070095  RH  050%=      5-min Rain = 0
KGU1 102147Z 22014G19KT 21/10 A3006 RMK A01 T02070095  RH  050%=      5-min Rain = 0
KGU1 102148Z 21014G21KT 21/10 A3006 RMK A01 T02050095  RH  051%=      5-min Rain = 0
KGU1 102149Z 21013KT 20/09 A3006 RMK A01 T02040094  RH  051%=      5-min Rain = 0
KGU1 102150Z 24009G14KT 20/09 A3006 RMK A01 T02030094  RH  051%=      5-min Rain = 0
KGU1 102151Z 24010KT 20/10 A3006 RMK A01 T02030095  RH  051%=      5-min Rain = 0
KGU1 102152Z 25013G19KT 21/10 A3006 RMK A01 T02050096  RH  051%=      5-min Rain = 0
KGU1 102153Z 26012KT 21/10 A3006 RMK A01 T02050095  RH  051%=      5-min Rain = 0
KGU1 102154Z 24009KT 21/10 A3006 RMK A01 T02050095  RH  051%=      5-min Rain = 0
KGU1 102155Z 23014KT 20/09 A3006 RMK A01 T02040094  RH  051%=      5-min Rain = 0
KGU1 102156Z 22014KT 20/10 A3006 RMK A01 T02030095  RH  052%=      5-min Rain = 0
KGU1 102157Z 20017G24KT 20/10 A3005 RMK A01 T02020095  RH  052%=      5-min Rain = 0
KGU1 102158Z 21012KT 20/09 A3006 RMK A01 T02020094  RH  051%=      5-min Rain = 0
KGU1 102159Z 21016G21KT 20/10 A3005 RMK A01 T02020095  RH  052%=      5-min Rain = 0
KGU1 102200Z 21019KT 20/10 A3005 RMK A01 T02030095  RH  051%=      5-min Rain = 0
KGU1 102201Z 22011G17KT 20/10 A3006 RMK A01 T02030095  RH  051%=      5-min Rain = 0
KGU1 102202Z 23011KT 20/10 A3006 RMK A01 T02040096  RH  052%=      5-min Rain = 0
KGU1 102203Z 21017G22KT 20/10 A3006 RMK A01 T02040096  RH  051%=      5-min Rain = 0
KGU1 102204Z 23013KT 20/10 A3006 RMK A01 T02040095  RH  051%=      5-min Rain = 0
KGU1 102205Z 23012G18KT 20/09 A3006 RMK A01 T02020094  RH  052%=      5-min Rain = 0
KGU1 102206Z 23011KT 20/10 A3006 RMK A01 T02020095  RH  052%=      5-min Rain = 0
KGU1 102207Z 23010G17KT 20/09 A3006 RMK A01 T02020094  RH  051%=      5-min Rain = 0
KGU1 102208Z 22013G20KT 20/10 A3006 RMK A01 T02020095  RH  052%=      5-min Rain = 0
KGU1 102209Z 21019G25KT 20/09 A3005 RMK A01 T02020094  RH  051%=      5-min Rain = 0
KGU1 102210Z 20013KT 20/09 A3006 RMK A01 T02010093  RH  051%=      5-min Rain = 0
KGU1 102211Z 22008G13KT 20/09 A3006 RMK A01 T02000094  RH  052%=      5-min Rain = 0
KGU1 102212Z 23010G16KT 20/09 A3006 RMK A01 T02000094  RH  052%=      5-min Rain = 0
KGU1 102213Z 24013G20KT 20/10 A3006 RMK A01 T02000095  RH  052%=      5-min Rain = 0
KGU1 102214Z 23010KT 20/09 A3006 RMK A01 T02000094  RH  052%=      5-min Rain = 0
KGU1 102215Z 23009G17KT 20/09 A3006 RMK A01 T02010094  RH  052%=      5-min Rain = 0
KGU1 102216Z 22010G15KT 20/10 A3006 RMK A01 T02010095  RH  052%=      5-min Rain = 0
KGU1 102217Z 25012G18KT 20/09 A3006 RMK A01 T02010094  RH  052%=      5-min Rain = 0
KGU1 102218Z 24011G16KT 20/09 A3006 RMK A01 T02000093  RH  052%=      5-min Rain = 0
KGU1 102219Z 24013KT 20/10 A3006 RMK A01 T02000095  RH  052%=      5-min Rain = 0
KGU1 102220Z 24011G16KT 20/10 A3006 RMK A01 T02000095  RH  052%=      5-min Rain = 0
KGU1 102221Z 25013KT 20/09 A3006 RMK A01 T01990093  RH  052%=      5-min Rain = 0
KGU1 102222Z 26014KT 20/09 A3006 RMK A01 T01990094  RH  052%=      5-min Rain = 0
KGU1 102223Z 26013G18KT 20/10 A3006 RMK A01 T02000095  RH  052%=      5-min Rain = 0
KGU1 102224Z 26014G21KT 20/09 A3006 RMK A01 T02000093  RH  052%=      5-min Rain = 0
KGU1 102225Z 27018G24KT 20/09 A3006 RMK A01 T02000093  RH  052%=      5-min Rain = 0
KGU1 102226Z 28014KT 20/09 A3006 RMK A01 T02010094  RH  052%=      5-min Rain = 0
KGU1 102227Z 28010KT 20/09 A3006 RMK A01 T02020094  RH  051%=      5-min Rain = 0
KGU1 102228Z 28013KT 20/10 A3006 RMK A01 T02030095  RH  052%=      5-min Rain = 0
KGU1 102229Z 26016G21KT 20/10 A3006 RMK A01 T02040096  RH  051%=      5-min Rain = 0
KGU1 102230Z 22011KT 20/10 A3006 RMK A01 T02040095  RH  051%=      5-min Rain = 0
KGU1 102231Z 25014G19KT 20/09 A3006 RMK A01 T02030094  RH  051%=      5-min Rain = 0
KGU1 102232Z 24016G24KT 20/09 A3006 RMK A01 T02020093  RH  051%=      5-min Rain = 0
KGU1 102233Z 24013KT 20/09 A3006 RMK A01 T02010094  RH  052%=      5-min Rain = 0
KGU1 102234Z 24011G17KT 20/09 A3005 RMK A01 T02010094  RH  052%=      5-min Rain = 0
KGU1 102235Z 25015G25KT 20/10 A3006 RMK A01 T02010095  RH  052%=      5-min Rain = 0
KGU1 102236Z 26016G24KT 20/09 A3006 RMK A01 T02000094  RH  052%=      5-min Rain = 0
KGU1 102237Z 25012KT 20/09 A3006 RMK A01 T02000093  RH  052%=      5-min Rain = 0
KGU1 102238Z 24010KT 20/09 A3005 RMK A01 T01990094  RH  052%=      5-min Rain = 0
KGU1 102239Z 25010KT 20/09 A3006 RMK A01 T01990094  RH  053%=      5-min Rain = 0
KGU1 102240Z 22009KT 20/10 A3006 RMK A01 T01990095  RH  053%=      5-min Rain = 0
KGU1 102241Z 26012G25KT 20/09 A3005 RMK A01 T01980094  RH  053%=      5-min Rain = 0
KGU1 102242Z 27011KT 20/10 A3005 RMK A01 T01980095  RH  053%=      5-min Rain = 0
KGU1 102243Z 27016G22KT 20/10 A3006 RMK A01 T01970095  RH  053%=      5-min Rain = 0
KGU1 102244Z 26010G15KT 20/10 A3006 RMK A01 T01970095  RH  053%=      5-min Rain = 0
KGU1 102245Z 25009KT 20/10 A3006 RMK A01 T01970095  RH  053%=      5-min Rain = 0
KGU1 102246Z 26009KT 20/10 A3006 RMK A01 T01970095  RH  053%=      5-min Rain = 0
KGU1 102247Z 25013G19KT 20/10 A3006 RMK A01 T01970095  RH  053%=      5-min Rain = 0
KGU1 102248Z 25012G19KT 20/10 A3006 RMK A01 T01970095  RH  053%=      5-min Rain = 0
KGU1 102249Z 27014G19KT 20/09 A3006 RMK A01 T01970094  RH  053%=      5-min Rain = 0
KGU1 102250Z 26011G16KT 20/10 A3006 RMK A01 T01970095  RH  053%=      5-min Rain = 0
KGU1 102251Z 26014G19KT 20/09 A3006 RMK A01 T01970094  RH  053%=      5-min Rain = 0
KGU1 102252Z 26010KT 20/09 A3006 RMK A01 T01970094  RH  053%=      5-min Rain = 0
KGU1 102253Z 27010KT 20/09 A3006 RMK A01 T01970094  RH  053%=      5-min Rain = 0
KGU1 102254Z 27016G21KT 20/09 A3006 RMK A01 T01970094  RH  053%=      5-min Rain = 0
KGU1 102255Z 26013G18KT 20/10 A3006 RMK A01 T01970095  RH  053%=      5-min Rain = 0
KGU1 102256Z 27017KT 20/09 A3006 RMK A01 T01970094  RH  053%=      5-min Rain = 0
KGU1 102257Z 25017G24KT 20/09 A3006 RMK A01 T01970094  RH  053%=      5-min Rain = 0
KGU1 102258Z 25012KT 20/09 A3006 RMK A01 T01970094  RH  053%=      5-min Rain = 0
KGU1 102259Z 28011KT 20/09 A3006 RMK A01 T01960094  RH  053%=      5-min Rain = 0
KGU1 102300Z 25010KT 20/09 A3006 RMK A01 T01960094  RH  053%=      5-min Rain = 0
KGU1 102301Z 27014G19KT 20/10 A3006 RMK A01 T01960095  RH  054%=      5-min Rain = 0
KGU1 102302Z 27018G24KT 20/09 A3006 RMK A01 T01960094  RH  053%=      5-min Rain = 0
KGU1 102303Z 24018G23KT 20/09 A3005 RMK A01 T01960092  RH  052%=      5-min Rain = 0
KGU1 102304Z 24017G24KT 20/09 A3006 RMK A01 T01960092  RH  052%=      5-min Rain = 0
KGU1 102305Z 24016KT 20/09 A3005 RMK A01 T01960092  RH  052%=      5-min Rain = 0
KGU1 102306Z 24011KT 20/09 A3005 RMK A01 T01950092  RH  053%=      5-min Rain = 0
KGU1 102307Z 27016G22KT 20/09 A3006 RMK A01 T01950092  RH  053%=      5-min Rain = 0
KGU1 102308Z 28021G33KT 20/09 A3006 RMK A01 T01950087  RH  051%=      5-min Rain = 0
KGU1 102309Z 27014G24KT 20/09 A3006 RMK A01 T01960089  RH  052%=      5-min Rain = 0
KGU1 102310Z 22017G24KT 20/09 A3005 RMK A01 T01960091  RH  052%=      5-min Rain = 0
KGU1 102311Z 23014G20KT 20/09 A3005 RMK A01 T01950090  RH  052%=      5-min Rain = 0
KGU1 102312Z 23016KT 20/09 A3006 RMK A01 T01950091  RH  053%=      5-min Rain = 0
KGU1 102313Z 24015KT 20/09 A3006 RMK A01 T01950091  RH  053%=      5-min Rain = 0
KGU1 102314Z 23010G15KT 20/09 A3006 RMK A01 T01950089  RH  052%=      5-min Rain = 0
KGU1 102315Z 22007KT 19/09 A3006 RMK A01 T01940090  RH  052%=      5-min Rain = 0
KGU1 102316Z 21008KT 19/09 A3006 RMK A01 T01940091  RH  053%=      5-min Rain = 0
KGU1 102317Z 26018G26KT 19/09 A3005 RMK A01 T01930092  RH  054%=      5-min Rain = 0
KGU1 102318Z 28021KT 19/09 A3006 RMK A01 T01930090  RH  053%=      5-min Rain = 0
KGU1 102319Z 27012G17KT 19/09 A3006 RMK A01 T01930089  RH  052%=      5-min Rain = 0
KGU1 102320Z 26008G13KT 19/09 A3006 RMK A01 T01930090  RH  053%=      5-min Rain = 0
KGU1 102321Z 25009KT 19/09 A3006 RMK A01 T01930091  RH  053%=      5-min Rain = 0
KGU1 102322Z 24013KT 19/09 A3006 RMK A01 T01930092  RH  054%=      5-min Rain = 0
KGU1 102323Z 25012KT 19/09 A3006 RMK A01 T01930091  RH  053%=      5-min Rain = 0
KGU1 102324Z 24010KT 19/09 A3006 RMK A01 T01930090  RH  053%=      5-min Rain = 0
KGU1 102325Z 26015G20KT 19/09 A3006 RMK A01 T01930090  RH  053%=      5-min Rain = 0
KGU1 102326Z 26013G19KT 19/09 A3006 RMK A01 T01930091  RH  053%=      5-min Rain = 0
KGU1 102327Z 28012KT 19/09 A3006 RMK A01 T01920091  RH  053%=      5-min Rain = 0
KGU1 102328Z 27016G22KT 19/09 A3006 RMK A01 T01920089  RH  053%=      5-min Rain = 0
KGU1 102329Z 27016G24KT 19/09 A3006 RMK A01 T01920090  RH  053%=      5-min Rain = 0
KGU1 102330Z 28013G18KT 19/09 A3006 RMK A01 T01920092  RH  054%=      5-min Rain = 0
KGU1 102331Z 28010G15KT 19/09 A3006 RMK A01 T01910091  RH  054%=      5-min Rain = 0
KGU1 102332Z 28015KT 19/09 A3007 RMK A01 T01910092  RH  054%=      5-min Rain = 0
KGU1 102333Z 29014KT 19/09 A3006 RMK A01 T01910092  RH  054%=      5-min Rain = 0
KGU1 102334Z 25011KT 19/09 A3006 RMK A01 T01910092  RH  054%=      5-min Rain = 0
KGU1 102335Z 23011KT 19/09 A3006 RMK A01 T01900092  RH  055%=      5-min Rain = 0
KGU1 102336Z 24010KT 19/09 A3006 RMK A01 T01900092  RH  055%=      5-min Rain = 0
KGU1 102337Z 27014KT 19/09 A3006 RMK A01 T01900092  RH  055%=      5-min Rain = 0
KGU1 102338Z 27014KT 19/09 A3006 RMK A01 T01900092  RH  054%=      5-min Rain = 0
KGU1 102339Z 24016G22KT 19/09 A3006 RMK A01 T01900092  RH  054%=      5-min Rain = 0
KGU1 102340Z 25012G17KT 19/09 A3006 RMK A01 T01910090  RH  054%=      5-min Rain = 0
KGU1 102341Z 24017KT 19/09 A3006 RMK A01 T01910091  RH  054%=      5-min Rain = 0
KGU1 102342Z 26015G23KT 19/09 A3006 RMK A01 T01910091  RH  054%=      5-min Rain = 0
KGU1 102343Z 26017G31KT 19/09 A3006 RMK A01 T01900091  RH  054%=      5-min Rain = 0
KGU1 102344Z 24016KT 19/09 A3006 RMK A01 T01900091  RH  054%=      5-min Rain = 0
KGU1 102345Z 26017KT 19/09 A3006 RMK A01 T01900091  RH  054%=      5-min Rain = 0
KGU1 102346Z 26019G26KT 19/09 A3006 RMK A01 T01900091  RH  054%=      5-min Rain = 0
KGU1 102347Z 25016G24KT 19/09 A3007 RMK A01 T01900091  RH  054%=      5-min Rain = 0
KGU1 102348Z 24017KT 19/09 A3006 RMK A01 T01900091  RH  054%=      5-min Rain = 0
KGU1 102349Z 24011G18KT 19/09 A3007 RMK A01 T01900091  RH  054%=      5-min Rain = 0
KGU1 102350Z 26013G19KT 19/09 A3007 RMK A01 T01890091  RH  055%=      5-min Rain = 0
KGU1 102351Z 25011KT 19/09 A3007 RMK A01 T01890091  RH  055%=      5-min Rain = 0
KGU1 102352Z 25010KT 19/09 A3007 RMK A01 T01890092  RH  055%=      5-min Rain = 0
KGU1 102353Z 27010KT 19/09 A3007 RMK A01 T01880092  RH  055%=      5-min Rain = 0
KGU1 102354Z 27011KT 19/09 A3007 RMK A01 T01880092  RH  055%=      5-min Rain = 0
KGU1 102355Z 27009KT 19/09 A3007 RMK A01 T01870092  RH  056%=      5-min Rain = 0
KGU1 102356Z 28013KT 19/09 A3007 RMK A01 T01870092  RH  056%=      5-min Rain = 0
KGU1 102357Z 24008G13KT 19/09 A3007 RMK A01 T01870092  RH  056%=      5-min Rain = 0
KGU1 102358Z 23013KT 19/09 A3006 RMK A01 T01870093  RH  056%=      5-min Rain = 0
KGU1 102359Z 22015G20KT 19/09 A3006 RMK A01 T01860093  RH  056%=      5-min Rain = 0
KGU1 110000Z 25015G24KT 19/09 A3007 RMK A01 T01860093  RH  056%=      5-min Rain = 0
KGU1 110001Z 26017KT 19/09 A3007 RMK A01 T01870092  RH  056%=      5-min Rain = 0
KGU1 110002Z 29022G27KT 19/09 A3007 RMK A01 T01870092  RH  056%=      5-min Rain = 0
KGU1 110003Z 29020G28KT 19/09 A3007 RMK A01 T01870091  RH  055%=      5-min Rain = 0
KGU1 110004Z 26018G23KT 19/09 A3007 RMK A01 T01870092  RH  056%=      5-min Rain = 0
KGU1 110005Z 25018KT 19/09 A3007 RMK A01 T01870092  RH  056%=      5-min Rain = 0
KGU1 110006Z 25014G21KT 19/09 A3007 RMK A01 T01870092  RH  056%=      5-min Rain = 0
KGU1 110007Z 27017KT 19/09 A3007 RMK A01 T01860092  RH  056%=      5-min Rain = 0
KGU1 110008Z 26019KT 19/09 A3007 RMK A01 T01860092  RH  056%=      5-min Rain = 0
KGU1 110009Z 24016G21KT 19/09 A3007 RMK A01 T01860091  RH  056%=      5-min Rain = 0
KGU1 110010Z 27021KT 19/09 A3007 RMK A01 T01870092  RH  056%=      5-min Rain = 0
KGU1 110011Z 23015G21KT 19/09 A3007 RMK A01 T01870091  RH  055%=      5-min Rain = 0
KGU1 110012Z 24012G19KT 19/09 A3007 RMK A01 T01870091  RH  055%=      5-min Rain = 0
KGU1 110013Z 26011KT 19/09 A3007 RMK A01 T01870092  RH  056%=      5-min Rain = 0
KGU1 110014Z 26014KT 19/09 A3007 RMK A01 T01860092  RH  056%=      5-min Rain = 0
KGU1 110015Z 27018KT 19/09 A3007 RMK A01 T01860092  RH  056%=      5-min Rain = 0
KGU1 110016Z 24012G18KT 19/09 A3007 RMK A01 T01850092  RH  056%=      5-min Rain = 0
KGU1 110017Z 23013KT 19/09 A3007 RMK A01 T01850092  RH  056%=      5-min Rain = 0
KGU1 110018Z 23008KT 19/09 A3007 RMK A01 T01850092  RH  056%=      5-min Rain = 0
KGU1 110019Z 24012KT 19/09 A3007 RMK A01 T01850092  RH  056%=      5-min Rain = 0
KGU1 110020Z 25011G18KT 19/09 A3007 RMK A01 T01850092  RH  056%=      5-min Rain = 0
KGU1 110021Z 24011KT 19/09 A3007 RMK A01 T01850092  RH  057%=      5-min Rain = 0
KGU1 110022Z 21010KT 19/09 A3007 RMK A01 T01850093  RH  057%=      5-min Rain = 0
KGU1 110023Z 22012KT 19/09 A3007 RMK A01 T01850093  RH  057%=      5-min Rain = 0
KGU1 110024Z 23014G19KT 19/09 A3007 RMK A01 T01850093  RH  057%=      5-min Rain = 0
KGU1 110025Z 24014KT 19/09 A3007 RMK A01 T01850093  RH  057%=      5-min Rain = 0
KGU1 110026Z 26015KT 18/09 A3007 RMK A01 T01840093  RH  057%=      5-min Rain = 0
KGU1 110027Z 27011G16KT 18/09 A3007 RMK A01 T01840093  RH  057%=      5-min Rain = 0
KGU1 110028Z 26013KT 18/09 A3007 RMK A01 T01830093  RH  057%=      5-min Rain = 0
KGU1 110029Z 26015KT 18/09 A3007 RMK A01 T01830093  RH  057%=      5-min Rain = 0
KGU1 110030Z 26014KT 18/09 A3007 RMK A01 T01840092  RH  057%=      5-min Rain = 0
KGU1 110031Z 26014KT 19/09 A3007 RMK A01 T01850092  RH  057%=      5-min Rain = 0
KGU1 110032Z 26013G18KT 19/09 A3007 RMK A01 T01850093  RH  057%=      5-min Rain = 0
KGU1 110033Z 26014KT 18/09 A3007 RMK A01 T01840093  RH  057%=      5-min Rain = 0
KGU1 110034Z 27012KT 18/09 A3007 RMK A01 T01840093  RH  057%=      5-min Rain = 0
KGU1 110035Z 27017G22KT 18/09 A3007 RMK A01 T01840093  RH  057%=      5-min Rain = 0
KGU1 110036Z 28018G26KT 18/09 A3007 RMK A01 T01840093  RH  057%=      5-min Rain = 0
KGU1 110037Z 26014G19KT 18/09 A3007 RMK A01 T01840093  RH  057%=      5-min Rain = 0
KGU1 110038Z 24013G20KT 18/09 A3007 RMK A01 T01830093  RH  057%=      5-min Rain = 0
KGU1 110039Z 25012KT 18/09 A3007 RMK A01 T01830093  RH  057%=      5-min Rain = 0
KGU1 110040Z 26017G22KT 18/09 A3007 RMK A01 T01840093  RH  057%=      5-min Rain = 0
KGU1 110041Z 26018G23KT 18/09 A3007 RMK A01 T01840093  RH  057%=      5-min Rain = 0
KGU1 110042Z 26017G23KT 19/09 A3007 RMK A01 T01850092  RH  057%=      5-min Rain = 0
KGU1 110043Z 26017KT 19/09 A3007 RMK A01 T01850093  RH  056%=      5-min Rain = 0
KGU1 110044Z 27018KT 19/09 A3007 RMK A01 T01850093  RH  057%=      5-min Rain = 0
KGU1 110045Z 26021G26KT 19/09 A3007 RMK A01 T01850093  RH  057%=      5-min Rain = 0
KGU1 110046Z 25015KT 19/09 A3007 RMK A01 T01850092  RH  057%=      5-min Rain = 0
KGU1 110047Z 25018G23KT 19/09 A3007 RMK A01 T01850093  RH  057%=      5-min Rain = 0
KGU1 110048Z 24018KT 19/09 A3007 RMK A01 T01850092  RH  057%=      5-min Rain = 0
KGU1 110049Z 25018KT 19/09 A3007 RMK A01 T01850093  RH  057%=      5-min Rain = 0
KGU1 110050Z 26017KT 19/09 A3007 RMK A01 T01850093  RH  057%=      5-min Rain = 0
KGU1 110051Z 26018G23KT 19/09 A3007 RMK A01 T01850093  RH  057%=      5-min Rain = 0
KGU1 110052Z 25015KT 19/09 A3007 RMK A01 T01850093  RH  057%=      5-min Rain = 0
KGU1 110053Z 25015KT 18/09 A3007 RMK A01 T01840093  RH  057%=      5-min Rain = 0
KGU1 110054Z 25011KT 18/09 A3007 RMK A01 T01840093  RH  057%=      5-min Rain = 0
KGU1 110055Z 26015G20KT 18/09 A3007 RMK A01 T01840093  RH  057%=      5-min Rain = 0
KGU1 110056Z 26014G19KT 18/09 A3007 RMK A01 T01840093  RH  057%=      5-min Rain = 0
KGU1 110057Z 25011KT 18/09 A3008 RMK A01 T01840093  RH  057%=      5-min Rain = 0
KGU1 110058Z 26020G25KT 18/09 A3008 RMK A01 T01830093  RH  057%=      5-min Rain = 0
KGU1 110059Z 25018G24KT 18/09 A3007 RMK A01 T01840093  RH  057%=      5-min Rain = 0
KGU1 110100Z 27017G22KT 19/09 A3008 RMK A01 T01850093  RH  057%=      5-min Rain = 0
KGU1 110101Z 26014KT 18/09 A3007 RMK A01 T01840093  RH  057%=      5-min Rain = 0
KGU1 110102Z 25016KT 18/09 A3008 RMK A01 T01830093  RH  057%=      5-min Rain = 0
KGU1 110103Z 26014KT 18/09 A3008 RMK A01 T01830093  RH  057%=      5-min Rain = 0
KGU1 110104Z 27015G20KT 18/09 A3008 RMK A01 T01830093  RH  057%=      5-min Rain = 0
KGU1 110105Z 26014KT 18/09 A3008 RMK A01 T01830093  RH  058%=      5-min Rain = 0
KGU1 110106Z 28017KT 18/09 A3008 RMK A01 T01820093  RH  058%=      5-min Rain = 0
KGU1 110107Z 27012KT 18/09 A3008 RMK A01 T01820093  RH  058%=      5-min Rain = 0
KGU1 110108Z 28016G24KT 18/09 A3008 RMK A01 T01820093  RH  058%=      5-min Rain = 0
KGU1 110109Z 27014KT 18/09 A3007 RMK A01 T01820093  RH  058%=      5-min Rain = 0
KGU1 110110Z 26013G18KT 18/09 A3007 RMK A01 T01810093  RH  058%=      5-min Rain = 0
KGU1 110111Z 26013KT 18/09 A3007 RMK A01 T01810093  RH  058%=      5-min Rain = 0
KGU1 110112Z 27014G19KT 18/09 A3008 RMK A01 T01800093  RH  058%=      5-min Rain = 0
KGU1 110113Z 26018KT 18/09 A3007 RMK A01 T01810093  RH  058%=      5-min Rain = 0
KGU1 110114Z 26017G25KT 18/09 A3007 RMK A01 T01820093  RH  058%=      5-min Rain = 0
KGU1 110115Z 26019G24KT 18/09 A3007 RMK A01 T01820093  RH  058%=      5-min Rain = 0
KGU1 110116Z 26017KT 18/09 A3007 RMK A01 T01830094  RH  057%=      5-min Rain = 0
KGU1 110117Z 25016G22KT 18/09 A3007 RMK A01 T01830093  RH  057%=      5-min Rain = 0
KGU1 110118Z 26015KT 18/09 A3008 RMK A01 T01830093  RH  057%=      5-min Rain = 0
KGU1 110119Z 25015KT 18/09 A3008 RMK A01 T01830093  RH  058%=      5-min Rain = 0
KGU1 110120Z 27016G23KT 18/09 A3008 RMK A01 T01830093  RH  058%=      5-min Rain = 0
KGU1 110121Z 27019G24KT 18/09 A3008 RMK A01 T01820093  RH  058%=      5-min Rain = 0
KGU1 110122Z 25016G21KT 18/09 A3008 RMK A01 T01830093  RH  058%=      5-min Rain = 0
KGU1 110123Z 26018KT 18/09 A3008 RMK A01 T01830093  RH  057%=      5-min Rain = 0
KGU1 110124Z 26018KT 18/09 A3008 RMK A01 T01830093  RH  057%=      5-min Rain = 0
KGU1 110125Z 25016G22KT 18/09 A3007 RMK A01 T01840092  RH  057%=      5-min Rain = 0
KGU1 110126Z 26022KT 18/09 A3008 RMK A01 T01840092  RH  057%=      5-min Rain = 0
KGU1 110127Z 25016G21KT 18/09 A3008 RMK A01 T01840092  RH  057%=      5-min Rain = 0
KGU1 110128Z 25014KT 18/09 A3008 RMK A01 T01840092  RH  057%=      5-min Rain = 0
KGU1 110129Z 25017G23KT 18/09 A3007 RMK A01 T01840092  RH  057%=      5-min Rain = 0
KGU1 110130Z 26017KT 18/09 A3008 RMK A01 T01830092  RH  057%=      5-min Rain = 0
KGU1 110131Z 25016G21KT 18/09 A3008 RMK A01 T01840092  RH  057%=      5-min Rain = 0
KGU1 110132Z 27018KT 18/09 A3008 RMK A01 T01840092  RH  057%=      5-min Rain = 0
KGU1 110133Z 26019KT 18/09 A3008 RMK A01 T01830092  RH  057%=      5-min Rain = 0
KGU1 110134Z 26018KT 18/09 A3008 RMK A01 T01840092  RH  057%=      5-min Rain = 0
KGU1 110135Z 26014G23KT 18/09 A3008 RMK A01 T01840091  RH  056%=      5-min Rain = 0
KGU1 110136Z 25015KT 18/09 A3008 RMK A01 T01840091  RH  056%=      5-min Rain = 0
KGU1 110137Z 25020KT 18/09 A3008 RMK A01 T01840092  RH  056%=      5-min Rain = 0
KGU1 110138Z 26017KT 18/09 A3008 RMK A01 T01840091  RH  056%=      5-min Rain = 0
KGU1 110139Z 25021G26KT 18/09 A3007 RMK A01 T01840091  RH  056%=      5-min Rain = 0
KGU1 110140Z 26017G22KT 19/09 A3007 RMK A01 T01850091  RH  056%=      5-min Rain = 0
KGU1 110141Z 25019KT 18/09 A3008 RMK A01 T01840092  RH  056%=      5-min Rain = 0
KGU1 110142Z 25015G20KT 18/09 A3007 RMK A01 T01840092  RH  056%=      5-min Rain = 0
KGU1 110143Z 27015KT 18/09 A3008 RMK A01 T01840091  RH  057%=      5-min Rain = 0
KGU1 110144Z 25016G21KT 18/09 A3008 RMK A01 T01830091  RH  057%=      5-min Rain = 0
KGU1 110145Z 28018KT 18/09 A3008 RMK A01 T01830092  RH  057%=      5-min Rain = 0
KGU1 110146Z 28017G23KT 18/09 A3008 RMK A01 T01830091  RH  057%=      5-min Rain = 0
KGU1 110147Z 26011KT 18/09 A3008 RMK A01 T01820092  RH  057%=      5-min Rain = 0
KGU1 110148Z 25011G16KT 18/09 A3008 RMK A01 T01820092  RH  057%=      5-min Rain = 0
KGU1 110149Z 25016KT 18/09 A3008 RMK A01 T01810091  RH  057%=      5-min Rain = 0
KGU1 110150Z 25018G23KT 18/09 A3008 RMK A01 T01820091  RH  057%=      5-min Rain = 0
KGU1 110151Z 26017KT 18/09 A3007 RMK A01 T01830091  RH  056%=      5-min Rain = 0
KGU1 110152Z 26014G19KT 18/09 A3008 RMK A01 T01830091  RH  056%=      5-min Rain = 0
KGU1 110153Z 26016G21KT 18/09 A3008 RMK A01 T01830091  RH  057%=      5-min Rain = 0
KGU1 110154Z 25015G21KT 18/09 A3008 RMK A01 T01820091  RH  057%=      5-min Rain = 0
KGU1 110155Z 25017KT 18/09 A3007 RMK A01 T01830091  RH  057%=      5-min Rain = 0
KGU1 110156Z 26016G24KT 18/09 A3008 RMK A01 T01830091  RH  056%=      5-min Rain = 0
KGU1 110157Z 26019KT 18/09 A3007 RMK A01 T01830090  RH  056%=      5-min Rain = 0
KGU1 110158Z 25020KT 18/09 A3007 RMK A01 T01830091  RH  057%=      5-min Rain = 0
KGU1 110159Z 25016KT 18/09 A3007 RMK A01 T01830091  RH  057%=      5-min Rain = 0
KGU1 110200Z 26014KT 18/09 A3008 RMK A01 T01830091  RH  057%=      5-min Rain = 0
KGU1 110201Z 26012G17KT 18/09 A3008 RMK A01 T01820091  RH  057%=      5-min Rain = 0
KGU1 110202Z 25016KT 18/09 A3008 RMK A01 T01820091  RH  057%=      5-min Rain = 0
KGU1 110203Z 25017G22KT 18/09 A3008 RMK A01 T01820091  RH  057%=      5-min Rain = 0
KGU1 110204Z 25019KT 18/09 A3007 RMK A01 T01830090  RH  056%=      5-min Rain = 0
KGU1 110205Z 25014G19KT 18/09 A3008 RMK A01 T01830091  RH  057%=      5-min Rain = 0
KGU1 110206Z 26013KT 18/09 A3008 RMK A01 T01830091  RH  057%=      5-min Rain = 0
KGU1 110207Z 25014KT 18/09 A3007 RMK A01 T01820091  RH  057%=      5-min Rain = 0
KGU1 110208Z 25016KT 18/09 A3007 RMK A01 T01820092  RH  057%=      5-min Rain = 0
KGU1 110209Z 25018KT 18/09 A3007 RMK A01 T01830091  RH  057%=      5-min Rain = 0
KGU1 110210Z 25015KT 18/09 A3008 RMK A01 T01830091  RH  057%=      5-min Rain = 0
KGU1 110211Z 25012G18KT 18/09 A3008 RMK A01 T01820092  RH  057%=      5-min Rain = 0
KGU1 110212Z 26017G22KT 18/09 A3008 RMK A01 T01810091  RH  057%=      5-min Rain = 0
KGU1 110213Z 25016KT 18/09 A3008 RMK A01 T01810092  RH  057%=      5-min Rain = 0
KGU1 110214Z 25016KT 18/09 A3008 RMK A01 T01820092  RH  058%=      5-min Rain = 0
KGU1 110215Z 26016G21KT 18/09 A3007 RMK A01 T01810092  RH  058%=      5-min Rain = 0
KGU1 110216Z 26018KT 18/09 A3008 RMK A01 T01810091  RH  057%=      5-min Rain = 0
KGU1 110217Z 25015KT 18/09 A3008 RMK A01 T01820091  RH  057%=      5-min Rain = 0
KGU1 110218Z 24013KT 18/09 A3007 RMK A01 T01820091  RH  057%=      5-min Rain = 0
KGU1 110219Z 25014KT 18/09 A3007 RMK A01 T01820091  RH  057%=      5-min Rain = 0
KGU1 110220Z 26012G17KT 18/09 A3007 RMK A01 T01820091  RH  057%=      5-min Rain = 0
KGU1 110221Z 26014G21KT 18/09 A3007 RMK A01 T01810091  RH  057%=      5-min Rain = 0
KGU1 110222Z 26011G19KT 18/09 A3007 RMK A01 T01810092  RH  058%=      5-min Rain = 0
KGU1 110223Z 26017KT 18/09 A3007 RMK A01 T01810092  RH  058%=      5-min Rain = 0
KGU1 110224Z 25018KT 18/09 A3007 RMK A01 T01810092  RH  058%=      5-min Rain = 0
KGU1 110225Z 24016G23KT 18/09 A3007 RMK A01 T01820092  RH  057%=      5-min Rain = 0
KGU1 110226Z 23019G25KT 18/09 A3007 RMK A01 T01820091  RH  057%=      5-min Rain = 0
KGU1 110227Z 24015KT 18/09 A3007 RMK A01 T01830091  RH  057%=      5-min Rain = 0
KGU1 110228Z 22017G25KT 18/09 A3007 RMK A01 T01830092  RH  057%=      5-min Rain = 0
KGU1 110229Z 23013KT 18/09 A3007 RMK A01 T01820091  RH  057%=      5-min Rain = 0
KGU1 110230Z 24016G21KT 18/09 A3007 RMK A01 T01830091  RH  057%=      5-min Rain = 0
KGU1 110231Z 26013G18KT 18/09 A3007 RMK A01 T01820091  RH  057%=      5-min Rain = 0
KGU1 110232Z 25015KT 18/09 A3007 RMK A01 T01810091  RH  057%=      5-min Rain = 0
KGU1 110233Z 25015G24KT 18/09 A3007 RMK A01 T01810091  RH  057%=      5-min Rain = 0
KGU1 110234Z 25016G21KT 18/09 A3007 RMK A01 T01820089  RH  056%=      5-min Rain = 0
KGU1 110235Z 25011KT 18/09 A3007 RMK A01 T01830090  RH  056%=      5-min Rain = 0
KGU1 110236Z 26012KT 18/09 A3007 RMK A01 T01820090  RH  057%=      5-min Rain = 0
KGU1 110237Z 26012KT 18/09 A3007 RMK A01 T01810090  RH  057%=      5-min Rain = 0
KGU1 110238Z 26017KT 18/09 A3007 RMK A01 T01800091  RH  058%=      5-min Rain = 0
KGU1 110239Z 25020G25KT 18/09 A3007 RMK A01 T01800090  RH  057%=      5-min Rain = 0
KGU1 110240Z 26019G28KT 18/09 A3007 RMK A01 T01810090  RH  057%=      5-min Rain = 0
KGU1 110241Z 27019G27KT 18/09 A3007 RMK A01 T01830091  RH  057%=      5-min Rain = 0
KGU1 110242Z 25023G28KT 18/09 A3007 RMK A01 T01830090  RH  056%=      5-min Rain = 0
KGU1 110243Z 25018KT 18/09 A3007 RMK A01 T01840090  RH  056%=      5-min Rain = 0
KGU1 110244Z 26015KT 18/09 A3007 RMK A01 T01840091  RH  056%=      5-min Rain = 0
KGU1 110245Z 25015G21KT 18/09 A3007 RMK A01 T01830091  RH  057%=      5-min Rain = 0
KGU1 110246Z 25016G21KT 18/09 A3007 RMK A01 T01830091  RH  057%=      5-min Rain = 0
KGU1 110247Z 26016G22KT 18/09 A3007 RMK A01 T01820091  RH  057%=      5-min Rain = 0
KGU1 110248Z 27021KT 18/09 A3007 RMK A01 T01820091  RH  057%=      5-min Rain = 0
KGU1 110249Z 26017G22KT 18/09 A3007 RMK A01 T01830091  RH  057%=      5-min Rain = 0
KGU1 110250Z 26018KT 18/09 A3007 RMK A01 T01820091  RH  057%=      5-min Rain = 0
KGU1 110251Z 25018KT 18/09 A3007 RMK A01 T01830089  RH  056%=      5-min Rain = 0
KGU1 110252Z 26015G21KT 18/09 A3007 RMK A01 T01820090  RH  057%=      5-min Rain = 0
KGU1 110253Z 25019G24KT 18/09 A3007 RMK A01 T01810090  RH  057%=      5-min Rain = 0
KGU1 110254Z 26016KT 18/09 A3007 RMK A01 T01820088  RH  056%=      5-min Rain = 0
KGU1 110255Z 26016G21KT 18/09 A3007 RMK A01 T01830089  RH  056%=      5-min Rain = 0
KGU1 110256Z 25020G28KT 18/09 A3007 RMK A01 T01830089  RH  056%=      5-min Rain = 0
KGU1 110257Z 25018G23KT 18/09 A3007 RMK A01 T01830089  RH  056%=      5-min Rain = 0
KGU1 110258Z 26019G30KT 18/09 A3007 RMK A01 T01830088  RH  055%=      5-min Rain = 0
KGU1 110259Z 26022G27KT 18/09 A3007 RMK A01 T01840088  RH  055%=      5-min Rain = 0
KGU1 110300Z 26018G25KT 18/09 A3007 RMK A01 T01840088  RH  055%=      5-min Rain = 0
KGU1 110301Z 26021G28KT 18/09 A3007 RMK A01 T01840087  RH  055%=      5-min Rain = 0
KGU1 110302Z 27023KT 18/09 A3007 RMK A01 T01840088  RH  055%=      5-min Rain = 0
KGU1 110303Z 25017G22KT 18/09 A3007 RMK A01 T01830088  RH  055%=      5-min Rain = 0
KGU1 110304Z 26019G25KT 18/09 A3007 RMK A01 T01830088  RH  055%=      5-min Rain = 0
KGU1 110305Z 26018KT 18/09 A3007 RMK A01 T01830088  RH  056%=      5-min Rain = 0
KGU1 110306Z 25024G32KT 18/09 A3007 RMK A01 T01820087  RH  055%=      5-min Rain = 0
KGU1 110307Z 25017G24KT 18/09 A3007 RMK A01 T01830087  RH  055%=      5-min Rain = 0
KGU1 110308Z 26017G22KT 18/09 A3007 RMK A01 T01830087  RH  055%=      5-min Rain = 0
KGU1 110309Z 26022KT 18/09 A3006 RMK A01 T01830087  RH  055%=      5-min Rain = 0
KGU1 110310Z 26023KT 18/09 A3006 RMK A01 T01830086  RH  054%=      5-min Rain = 0
KGU1 110311Z 26023G30KT 18/09 A3006 RMK A01 T01840086  RH  054%=      5-min Rain = 0
KGU1 110312Z 25019KT 19/09 A3006 RMK A01 T01850085  RH  054%=      5-min Rain = 0
KGU1 110313Z 26020KT 19/09 A3006 RMK A01 T01850086  RH  054%=      5-min Rain = 0
KGU1 110314Z 25019G25KT 18/09 A3006 RMK A01 T01840086  RH  054%=      5-min Rain = 0
KGU1 110315Z 26022KT 18/09 A3006 RMK A01 T01840085  RH  054%=      5-min Rain = 0
KGU1 110316Z 25023G31KT 18/09 A3006 RMK A01 T01840086  RH  054%=      5-min Rain = 0
KGU1 110317Z 26020G27KT 19/09 A3006 RMK A01 T01850085  RH  054%=      5-min Rain = 0
KGU1 110318Z 26020KT 19/08 A3006 RMK A01 T01850084  RH  053%=      5-min Rain = 0
KGU1 110319Z 27018KT 18/09 A3006 RMK A01 T01840085  RH  054%=      5-min Rain = 0
KGU1 110320Z 26021G26KT 18/09 A3006 RMK A01 T01840085  RH  054%=      5-min Rain = 0
KGU1 110321Z 26021G28KT 18/08 A3006 RMK A01 T01840084  RH  054%=      5-min Rain = 0
KGU1 110322Z 25020G27KT 19/08 A3006 RMK A01 T01850084  RH  053%=      5-min Rain = 0
KGU1 110323Z 26021G27KT 19/08 A3006 RMK A01 T01850084  RH  053%=      5-min Rain = 0
KGU1 110324Z 25021G28KT 19/08 A3006 RMK A01 T01850084  RH  053%=      5-min Rain = 0
KGU1 110325Z 26024G31KT 19/08 A3006 RMK A01 T01850083  RH  053%=      5-min Rain = 0
KGU1 110326Z 26020G26KT 19/08 A3006 RMK A01 T01850083  RH  053%=      5-min Rain = 0
KGU1 110327Z 26022G27KT 19/08 A3006 RMK A01 T01850082  RH  052%=      5-min Rain = 0
KGU1 110328Z 26026G31KT 19/08 A3006 RMK A01 T01860082  RH  052%=      5-min Rain = 0
KGU1 110329Z 26023KT 19/08 A3006 RMK A01 T01860082  RH  052%=      5-min Rain = 0
KGU1 110330Z 26021KT 19/08 A3006 RMK A01 T01860082  RH  052%=      5-min Rain = 0
KGU1 110331Z 26018G26KT 19/08 A3006 RMK A01 T01860082  RH  052%=      5-min Rain = 0
KGU1 110332Z 26022G29KT 19/08 A3006 RMK A01 T01850083  RH  053%=      5-min Rain = 0
KGU1 110333Z 25022G33KT 19/08 A3006 RMK A01 T01850082  RH  053%=      5-min Rain = 0
KGU1 110334Z 26021G26KT 19/08 A3006 RMK A01 T01850082  RH  052%=      5-min Rain = 0
KGU1 110335Z 26020KT 19/08 A3006 RMK A01 T01850082  RH  052%=      5-min Rain = 0
KGU1 110336Z 26022G27KT 19/08 A3006 RMK A01 T01850082  RH  052%=      5-min Rain = 0
KGU1 110337Z 26022G29KT 19/08 A3006 RMK A01 T01850081  RH  052%=      5-min Rain = 0
KGU1 110338Z 26022KT 19/08 A3006 RMK A01 T01860081  RH  052%=      5-min Rain = 0
KGU1 110339Z 26020G27KT 19/08 A3006 RMK A01 T01860081  RH  052%=      5-min Rain = 0
KGU1 110340Z 25020G27KT 19/08 A3006 RMK A01 T01850081  RH  052%=      5-min Rain = 0
KGU1 110341Z 26023G29KT 19/08 A3006 RMK A01 T01860081  RH  052%=      5-min Rain = 0
KGU1 110342Z 27021G28KT 19/08 A3006 RMK A01 T01860081  RH  052%=      5-min Rain = 0
KGU1 110343Z 26023G30KT 19/08 A3006 RMK A01 T01860081  RH  052%=      5-min Rain = 0
KGU1 110344Z 27023G29KT 19/08 A3006 RMK A01 T01860081  RH  052%=      5-min Rain = 0
KGU1 110345Z 26020G25KT 19/08 A3006 RMK A01 T01870081  RH  052%=      5-min Rain = 0
KGU1 110346Z 25021G26KT 19/08 A3006 RMK A01 T01860081  RH  052%=      5-min Rain = 0
KGU1 110347Z 26023KT 19/08 A3006 RMK A01 T01860081  RH  052%=      5-min Rain = 0
KGU1 110348Z 26022G30KT 19/08 A3006 RMK A01 T01860080  RH  051%=      5-min Rain = 0
KGU1 110349Z 26022G32KT 19/08 A3005 RMK A01 T01870079  RH  051%=      5-min Rain = 0
KGU1 110350Z 26023G29KT 19/08 A3005 RMK A01 T01870079  RH  051%=      5-min Rain = 0
KGU1 110351Z 25024G30KT 19/08 A3005 RMK A01 T01880079  RH  050%=      5-min Rain = 0
KGU1 110352Z 26021G31KT 19/08 A3005 RMK A01 T01880077  RH  050%=      5-min Rain = 0
KGU1 110353Z 25021G30KT 19/08 A3005 RMK A01 T01890075  RH  049%=      5-min Rain = 0
KGU1 110354Z 25025G30KT 19/08 A3005 RMK A01 T01890076  RH  049%=      5-min Rain = 0
KGU1 110355Z 25018G28KT 19/08 A3005 RMK A01 T01880077  RH  050%=      5-min Rain = 0
KGU1 110356Z 26019G25KT 19/08 A3005 RMK A01 T01880078  RH  050%=      5-min Rain = 0
KGU1 110357Z 26022G31KT 19/08 A3005 RMK A01 T01870078  RH  051%=      5-min Rain = 0
KGU1 110358Z 26021G27KT 19/08 A3005 RMK A01 T01870077  RH  050%=      5-min Rain = 0
KGU1 110359Z 26021G26KT 19/08 A3005 RMK A01 T01870076  RH  049%=      5-min Rain = 0
KGU1 110400Z 26021G28KT 19/07 A3005 RMK A01 T01880074  RH  049%=      5-min Rain = 0
KGU1 110401Z 26021KT 19/07 A3005 RMK A01 T01880073  RH  049%=      5-min Rain = 0
KGU1 110402Z 26022G27KT 19/07 A3006 RMK A01 T01880073  RH  048%=      5-min Rain = 0
KGU1 110403Z 25023G30KT 19/07 A3005 RMK A01 T01890072  RH  048%=      5-min Rain = 0
KGU1 110404Z 26020G30KT 19/07 A3005 RMK A01 T01890072  RH  047%=      5-min Rain = 0
KGU1 110405Z 26021G27KT 19/07 A3005 RMK A01 T01900070  RH  047%=      5-min Rain = 0
KGU1 110406Z 26024G35KT 19/07 A3006 RMK A01 T01900067  RH  046%=      5-min Rain = 0
KGU1 110407Z 26022G27KT 19/07 A3006 RMK A01 T01910068  RH  046%=      5-min Rain = 0
KGU1 110408Z 26026G34KT 19/07 A3005 RMK A01 T01910068  RH  046%=      5-min Rain = 0
KGU1 110409Z 25026G33KT 19/07 A3005 RMK A01 T01910068  RH  046%=      5-min Rain = 0
KGU1 110410Z 25023G28KT 19/06 A3006 RMK A01 T01920064  RH  044%=      5-min Rain = 0
KGU1 110411Z 26023G28KT 19/07 A3006 RMK A01 T01920067  RH  045%=      5-min Rain = 0
KGU1 110412Z 25020G25KT 19/07 A3005 RMK A01 T01920066  RH  045%=      5-min Rain = 0
KGU1 110413Z 26023G33KT 19/07 A3005 RMK A01 T01910065  RH  045%=      5-min Rain = 0
KGU1 110414Z 26019G27KT 19/06 A3006 RMK A01 T01920063  RH  044%=      5-min Rain = 0
KGU1 110415Z 25023G30KT 19/06 A3006 RMK A01 T01920064  RH  044%=      5-min Rain = 0
KGU1 110416Z 26017G24KT 19/07 A3006 RMK A01 T01920067  RH  045%=      5-min Rain = 0
KGU1 110417Z 26022G29KT 19/07 A3006 RMK A01 T01910067  RH  045%=      5-min Rain = 0
KGU1 110418Z 25026KT 19/07 A3005 RMK A01 T01910069  RH  046%=      5-min Rain = 0
KGU1 110419Z 25021KT 19/07 A3005 RMK A01 T01910068  RH  046%=      5-min Rain = 0
KGU1 110420Z 26023KT 19/07 A3006 RMK A01 T01910069  RH  046%=      5-min Rain = 0
KGU1 110421Z 25026G31KT 19/07 A3006 RMK A01 T01910068  RH  046%=      5-min Rain = 0
KGU1 110422Z 24021G29KT 19/07 A3005 RMK A01 T01910067  RH  045%=      5-min Rain = 0
KGU1 110423Z 26022KT 19/07 A3006 RMK A01 T01910068  RH  046%=      5-min Rain = 0
KGU1 110424Z 26022G28KT 19/07 A3006 RMK A01 T01910068  RH  046%=      5-min Rain = 0
KGU1 110425Z 26020G25KT 19/07 A3006 RMK A01 T01910068  RH  046%=      5-min Rain = 0
KGU1 110426Z 25027G32KT 19/07 A3006 RMK A01 T01910066  RH  045%=      5-min Rain = 0
KGU1 110427Z 25023G30KT 19/07 A3005 RMK A01 T01920065  RH  045%=      5-min Rain = 0
KGU1 110428Z 25022G29KT 19/07 A3005 RMK A01 T01920066  RH  045%=      5-min Rain = 0
KGU1 110429Z 26023G29KT 19/07 A3005 RMK A01 T01920067  RH  045%=      5-min Rain = 0
KGU1 110430Z 25024G34KT 19/07 A3005 RMK A01 T01920066  RH  045%=      5-min Rain = 0
KGU1 110431Z 26021G29KT 19/07 A3005 RMK A01 T01920065  RH  045%=      5-min Rain = 0
KGU1 110432Z 25020G26KT 19/07 A3006 RMK A01 T01920068  RH  046%=      5-min Rain = 0
KGU1 110433Z 25019G25KT 19/07 A3005 RMK A01 T01910067  RH  046%=      5-min Rain = 0
KGU1 110434Z 25024G37KT 19/07 A3005 RMK A01 T01900067  RH  046%=      5-min Rain = 0
KGU1 110435Z 26020G27KT 19/06 A3005 RMK A01 T01910064  RH  044%=      5-min Rain = 0
KGU1 110436Z 25023KT 19/07 A3005 RMK A01 T01910067  RH  045%=      5-min Rain = 0
KGU1 110437Z 26023G31KT 19/07 A3005 RMK A01 T01910068  RH  046%=      5-min Rain = 0
KGU1 110438Z 26025G31KT 19/07 A3006 RMK A01 T01910066  RH  045%=      5-min Rain = 0
KGU1 110439Z 26023G30KT 19/07 A3006 RMK A01 T01920066  RH  045%=      5-min Rain = 0
KGU1 110440Z 25022G31KT 19/07 A3006 RMK A01 T01930067  RH  045%=      5-min Rain = 0
KGU1 110441Z 24021G29KT 19/07 A3006 RMK A01 T01930069  RH  046%=      5-min Rain = 0
KGU1 110442Z 25021G27KT 19/07 A3006 RMK A01 T01920070  RH  046%=      5-min Rain = 0
KGU1 110443Z 25023G31KT 19/07 A3006 RMK A01 T01920071  RH  046%=      5-min Rain = 0
KGU1 110444Z 26019G25KT 19/07 A3006 RMK A01 T01920072  RH  047%=      5-min Rain = 0
KGU1 110445Z 24023G31KT 19/07 A3006 RMK A01 T01910071  RH  047%=      5-min Rain = 0
KGU1 110446Z 26022G29KT 19/07 A3006 RMK A01 T01910071  RH  047%=      5-min Rain = 0
KGU1 110447Z 26018KT 19/07 A3006 RMK A01 T01910072  RH  047%=      5-min Rain = 0
KGU1 110448Z 26019G29KT 19/07 A3006 RMK A01 T01900073  RH  048%=      5-min Rain = 0
KGU1 110449Z 25022G27KT 19/07 A3006 RMK A01 T01900074  RH  048%=      5-min Rain = 0
KGU1 110450Z 28021KT 19/07 A3007 RMK A01 T01900074  RH  048%=      5-min Rain = 0
KGU1 110451Z 27018G26KT 19/07 A3007 RMK A01 T01890074  RH  049%=      5-min Rain = 0
KGU1 110452Z 27019G28KT 19/07 A3006 RMK A01 T01880074  RH  049%=      5-min Rain = 0
KGU1 110453Z 25017G23KT 19/08 A3006 RMK A01 T01880075  RH  049%=      5-min Rain = 0
KGU1 110454Z 26018G25KT 19/08 A3007 RMK A01 T01870075  RH  049%=      5-min Rain = 0
KGU1 110455Z 26015G24KT 19/08 A3007 RMK A01 T01870075  RH  050%=      5-min Rain = 0
KGU1 110456Z 25015KT 19/08 A3007 RMK A01 T01860076  RH  050%=      5-min Rain = 0
KGU1 110457Z 28017G23KT 19/08 A3007 RMK A01 T01860076  RH  050%=      5-min Rain = 0
KGU1 110458Z 25017G23KT 19/08 A3007 RMK A01 T01850077  RH  050%=      5-min Rain = 0
KGU1 110459Z 26015G20KT 19/08 A3007 RMK A01 T01860076  RH  050%=      5-min Rain = 0
KGU1 110500Z 25019KT 19/08 A3007 RMK A01 T01860077  RH  050%=      5-min Rain = 0
KGU1 110501Z 25019G26KT 19/08 A3007 RMK A01 T01860076  RH  050%=      5-min Rain = 0
KGU1 110502Z 26017G24KT 19/08 A3007 RMK A01 T01860076  RH  050%=      5-min Rain = 0
KGU1 110503Z 25013KT 19/08 A3007 RMK A01 T01850077  RH  050%=      5-min Rain = 0
KGU1 110504Z 25015KT 19/08 A3007 RMK A01 T01850076  RH  051%=      5-min Rain = 0
KGU1 110505Z 25013G19KT 19/08 A3007 RMK A01 T01850077  RH  051%=      5-min Rain = 0
KGU1 110506Z 26019KT 18/08 A3007 RMK A01 T01840077  RH  051%=      5-min Rain = 0
KGU1 110507Z 25022KT 19/08 A3007 RMK A01 T01850076  RH  051%=      5-min Rain = 0
KGU1 110508Z 27018KT 19/08 A3007 RMK A01 T01860077  RH  050%=      5-min Rain = 0
KGU1 110509Z 26017G22KT 19/08 A3007 RMK A01 T01850077  RH  051%=      5-min Rain = 0
KGU1 110510Z 26017G22KT 19/08 A3007 RMK A01 T01850077  RH  051%=      5-min Rain = 0
KGU1 110511Z 26016KT 19/08 A3007 RMK A01 T01850077  RH  051%=      5-min Rain = 0
KGU1 110512Z 27018G25KT 18/08 A3007 RMK A01 T01840077  RH  051%=      5-min Rain = 0
KGU1 110513Z 25016G22KT 18/08 A3007 RMK A01 T01840077  RH  051%=      5-min Rain = 0
KGU1 110514Z 25015KT 18/08 A3007 RMK A01 T01830078  RH  052%=      5-min Rain = 0
KGU1 110515Z 25019G28KT 18/08 A3006 RMK A01 T01820078  RH  052%=      5-min Rain = 0
KGU1 110516Z 25020KT 18/08 A3006 RMK A01 T01830077  RH  051%=      5-min Rain = 0
KGU1 110517Z 25018G25KT 18/08 A3006 RMK A01 T01840078  RH  051%=      5-min Rain = 0
KGU1 110518Z 25020G25KT 18/08 A3006 RMK A01 T01830078  RH  052%=      5-min Rain = 0
KGU1 110519Z 25024G30KT 18/08 A3006 RMK A01 T01830078  RH  052%=      5-min Rain = 0
KGU1 110520Z 25021G28KT 18/08 A3006 RMK A01 T01840078  RH  051%=      5-min Rain = 0
KGU1 110521Z 25022G32KT 19/08 A3006 RMK A01 T01850078  RH  051%=      5-min Rain = 0
KGU1 110522Z 26021G28KT 19/08 A3006 RMK A01 T01850078  RH  051%=      5-min Rain = 0
KGU1 110523Z 26018G25KT 18/08 A3006 RMK A01 T01840078  RH  051%=      5-min Rain = 0
KGU1 110524Z 25021G27KT 18/08 A3006 RMK A01 T01820079  RH  052%=      5-min Rain = 0
KGU1 110525Z 25015G20KT 18/08 A3006 RMK A01 T01820078  RH  052%=      5-min Rain = 0
KGU1 110526Z 25018G25KT 18/08 A3006 RMK A01 T01810079  RH  053%=      5-min Rain = 0
KGU1 110527Z 25019G26KT 18/08 A3006 RMK A01 T01810079  RH  053%=      5-min Rain = 0
KGU1 110528Z 25018G26KT 18/08 A3006 RMK A01 T01800079  RH  053%=      5-min Rain = 0
KGU1 110529Z 25022G29KT 18/08 A3005 RMK A01 T01810079  RH  053%=      5-min Rain = 0
KGU1 110530Z 25021G26KT 18/08 A3005 RMK A01 T01820079  RH  052%=      5-min Rain = 0
KGU1 110531Z 25020KT 18/08 A3005 RMK A01 T01820079  RH  052%=      5-min Rain = 0
KGU1 110532Z 26022G27KT 18/08 A3005 RMK A01 T01820079  RH  052%=      5-min Rain = 0
KGU1 110533Z 25027G34KT 18/08 A3005 RMK A01 T01820079  RH  052%=      5-min Rain = 0
KGU1 110534Z 26022G30KT 18/08 A3005 RMK A01 T01840079  RH  052%=      5-min Rain = 0
KGU1 110535Z 25023G31KT 18/08 A3005 RMK A01 T01840079  RH  052%=      5-min Rain = 0
KGU1 110536Z 25022G29KT 18/08 A3005 RMK A01 T01830079  RH  052%=      5-min Rain = 0
KGU1 110537Z 25020KT 18/08 A3005 RMK A01 T01830080  RH  052%=      5-min Rain = 0
KGU1 110538Z 26023G31KT 18/08 A3005 RMK A01 T01820080  RH  053%=      5-min Rain = 0
KGU1 110539Z 26031G36KT 18/08 A3005 RMK A01 T01820080  RH  053%=      5-min Rain = 0
KGU1 110540Z 25023G32KT 18/08 A3005 RMK A01 T01830079  RH  052%=      5-min Rain = 0
KGU1 110541Z 26021G26KT 18/08 A3005 RMK A01 T01820080  RH  053%=      5-min Rain = 0
KGU1 110542Z 25023G30KT 18/08 A3005 RMK A01 T01820080  RH  053%=      5-min Rain = 0
KGU1 110543Z 26024G30KT 18/08 A3005 RMK A01 T01820081  RH  053%=      5-min Rain = 0
KGU1 110544Z 27025G34KT 18/08 A3005 RMK A01 T01820081  RH  053%=      5-min Rain = 0
KGU1 110545Z 27032G39KT 18/08 A3004 RMK A01 T01830081  RH  053%=      5-min Rain = 0
KGU1 110546Z 26031G36KT 18/08 A3004 RMK A01 T01830081  RH  053%=      5-min Rain = 0
KGU1 110547Z 26028G37KT 18/08 A3004 RMK A01 T01830081  RH  053%=      5-min Rain = 0
KGU1 110548Z 25026G39KT 18/08 A3004 RMK A01 T01830081  RH  053%=      5-min Rain = 0
KGU1 110549Z 26030G35KT 18/08 A3004 RMK A01 T01830081  RH  053%=      5-min Rain = 0
KGU1 110550Z 26022G29KT 18/08 A3004 RMK A01 T01830081  RH  053%=      5-min Rain = 0
KGU1 110551Z 26032KT 18/08 A3004 RMK A01 T01830080  RH  053%=      5-min Rain = 0
KGU1 110552Z 26026G32KT 18/08 A3004 RMK A01 T01830080  RH  053%=      5-min Rain = 0
KGU1 110553Z 26025G32KT 18/08 A3004 RMK A01 T01830080  RH  053%=      5-min Rain = 0
KGU1 110554Z 25029G36KT 18/08 A3004 RMK A01 T01820080  RH  053%=      5-min Rain = 0
KGU1 110555Z 26028G33KT 18/08 A3004 RMK A01 T01830080  RH  053%=      5-min Rain = 0
KGU1 110556Z 26026G31KT 18/08 A3004 RMK A01 T01830080  RH  053%=      5-min Rain = 0
KGU1 110557Z 27029G37KT 18/08 A3005 RMK A01 T01820080  RH  053%=      5-min Rain = 0
KGU1 110558Z 27029G35KT 18/08 A3005 RMK A01 T01820080  RH  053%=      5-min Rain = 0
KGU1 110559Z 26023G31KT 18/08 A3005 RMK A01 T01820080  RH  053%=      5-min Rain = 0

Page generated in 0.0723 seconds.